Time,TemperatureF,DewpointF,PressureIn,WindDirection,WindDirectionDegrees,WindSpeedMPH,WindSpeedGustMPH,Humidity,HourlyPrecipIn,Conditions,Clouds,dailyrainin,SoftwareType,DateUTC
2013-01-17 00:01:00,32.7,31.2,29.17,SSW,202,0.9,0.9,94,0.00,,---,0.00,VWS V13.01,2013-01-17 05:01:00,
2013-01-17 00:03:00,32.7,31.2,29.17,SSW,202,0.9,0.9,94,0.00,,---,0.00,VWS V13.01,2013-01-17 05:03:00,
2013-01-17 00:06:00,32.7,31.2,29.17,SSW,202,0.9,0.9,94,0.00,,---,0.00,VWS V13.01,2013-01-17 05:06:00,
2013-01-17 00:08:00,32.7,31.2,29.17,SSW,202,0.9,0.9,94,0.00,,---,0.00,VWS V13.01,2013-01-17 05:08:00,
2013-01-17 00:11:00,32.7,31.2,29.17,SSW,202,0.9,0.9,94,0.00,,---,0.00,VWS V13.01,2013-01-17 05:11:00,
2013-01-17 00:13:00,32.7,31.2,29.17,SSW,202,0.9,0.9,94,0.00,,---,0.00,VWS V13.01,2013-01-17 05:13:00,
2013-01-17 00:16:00,32.7,31.2,29.17,SSW,202,0.9,0.9,94,0.00,,---,0.00,VWS V13.01,2013-01-17 05:16:00,
2013-01-17 00:17:00,32.7,31.2,29.17,SSW,202,0.9,0.9,94,0.00,,---,0.00,VWS V13.01,2013-01-17 05:17:00,
2013-01-17 00:18:00,32.7,31.2,29.17,SSW,202,0.9,0.9,94,0.00,,---,0.00,VWS V13.01,2013-01-17 05:18:00,
2013-01-17 00:21:00,32.7,31.2,29.17,SSW,202,0.9,0.9,94,0.00,,---,0.00,VWS V13.01,2013-01-17 05:21:00,
2013-01-17 00:22:00,32.7,31.2,29.17,SSW,202,0.9,0.9,94,0.00,,---,0.00,VWS V13.01,2013-01-17 05:22:00,
2013-01-17 00:23:00,32.7,31.2,29.17,SSW,202,0.9,0.9,94,0.00,,---,0.00,VWS V13.01,2013-01-17 05:23:00,
2013-01-17 00:26:00,32.7,31.2,29.17,SSW,202,0.9,0.9,94,0.00,,---,0.00,VWS V13.01,2013-01-17 05:26:00,
2013-01-17 00:27:00,32.7,31.2,29.17,SSW,202,1.3,1.3,94,0.00,,---,0.00,VWS V13.01,2013-01-17 05:27:00,
2013-01-17 00:28:00,32.7,31.2,29.17,SSW,202,1.3,1.3,94,0.00,,---,0.00,VWS V13.01,2013-01-17 05:28:00,
2013-01-17 00:31:00,32.7,31.2,29.17,SSW,202,1.3,1.3,94,0.00,,---,0.00,VWS V13.01,2013-01-17 05:31:00,
2013-01-17 00:32:00,32.7,31.2,29.17,SSW,202,1.3,1.3,94,0.00,,---,0.00,VWS V13.01,2013-01-17 05:32:00,
2013-01-17 00:33:00,32.7,31.2,29.17,SSW,202,1.3,1.3,94,0.00,,---,0.00,VWS V13.01,2013-01-17 05:33:00,
2013-01-17 00:36:00,32.7,31.2,29.17,SW,225,0.0,0.0,94,0.00,,---,0.00,VWS V13.01,2013-01-17 05:36:00,
2013-01-17 00:37:00,32.7,31.2,29.17,SW,225,0.0,0.0,94,0.00,,---,0.00,VWS V13.01,2013-01-17 05:37:00,
2013-01-17 00:39:00,32.7,31.2,29.17,SW,225,0.0,0.0,94,0.00,,---,0.00,VWS V13.01,2013-01-17 05:39:00,
2013-01-17 00:42:00,32.7,31.2,29.17,SW,225,0.0,0.0,94,0.00,,---,0.00,VWS V13.01,2013-01-17 05:42:00,
2013-01-17 00:44:00,32.7,31.2,29.17,SW,225,0.0,0.0,94,0.00,,---,0.00,VWS V13.01,2013-01-17 05:44:00,
2013-01-17 00:47:00,32.7,31.2,29.17,SW,225,0.0,0.0,94,0.00,,---,0.00,VWS V13.01,2013-01-17 05:47:00,
2013-01-17 00:48:00,32.7,31.2,29.17,SW,225,0.0,0.0,94,0.00,,---,0.00,VWS V13.01,2013-01-17 05:48:00,
2013-01-17 00:49:00,32.7,31.2,29.17,SW,225,0.0,0.0,94,0.00,,---,0.00,VWS V13.01,2013-01-17 05:49:00,
2013-01-17 00:52:00,32.7,31.2,29.17,SSW,202,1.6,1.6,94,0.00,,---,0.00,VWS V13.01,2013-01-17 05:52:00,
2013-01-17 00:53:00,32.9,31.4,29.17,SSW,202,1.6,1.6,94,0.00,,---,0.00,VWS V13.01,2013-01-17 05:53:00,
2013-01-17 00:54:00,32.9,31.4,29.17,SSW,202,1.6,1.6,94,0.00,,---,0.00,VWS V13.01,2013-01-17 05:54:00,
2013-01-17 00:57:00,32.9,31.4,29.17,SSW,202,1.6,1.6,94,0.00,,---,0.00,VWS V13.01,2013-01-17 05:57:00,
2013-01-17 00:58:00,32.9,31.4,29.20,SSW,202,1.6,1.6,94,0.00,,---,0.00,VWS V13.01,2013-01-17 05:58:00,
2013-01-17 00:59:00,32.9,31.4,29.20,SSW,202,1.6,1.6,94,0.00,,---,0.00,VWS V13.01,2013-01-17 05:59:00,
2013-01-17 01:02:00,32.9,31.4,29.20,SSW,202,1.6,1.6,94,0.00,,---,0.00,VWS V13.01,2013-01-17 06:02:00,
2013-01-17 01:03:00,32.9,31.4,29.20,SSW,202,1.6,1.6,94,0.00,,---,0.00,VWS V13.01,2013-01-17 06:03:00,
2013-01-17 01:04:00,32.9,31.4,29.20,SSW,202,1.6,1.6,94,0.00,,---,0.00,VWS V13.01,2013-01-17 06:04:00,
2013-01-17 01:07:00,32.9,31.4,29.20,SSW,202,1.6,1.6,94,0.00,,---,0.00,VWS V13.01,2013-01-17 06:07:00,
2013-01-17 01:08:00,32.9,31.4,29.20,SSW,202,1.6,1.6,94,0.00,,---,0.00,VWS V13.01,2013-01-17 06:08:00,
2013-01-17 01:09:00,33.1,31.5,29.20,SSW,202,1.6,1.6,94,0.00,,---,0.00,VWS V13.01,2013-01-17 06:09:00,
2013-01-17 01:12:00,33.1,31.5,29.20,SSW,202,1.6,1.6,94,0.00,,---,0.00,VWS V13.01,2013-01-17 06:12:00,
2013-01-17 01:13:00,33.1,31.5,29.20,SSW,202,1.6,1.6,94,0.00,,---,0.00,VWS V13.01,2013-01-17 06:13:00,
2013-01-17 01:15:00,32.9,31.4,29.20,SSW,202,1.6,1.6,94,0.00,,---,0.00,VWS V13.01,2013-01-17 06:15:00,
2013-01-17 01:17:00,33.1,31.5,29.20,SSW,202,1.6,1.6,94,0.00,,---,0.00,VWS V13.01,2013-01-17 06:17:00,
2013-01-17 01:18:00,33.1,31.5,29.20,SSW,202,1.6,1.6,94,0.00,,---,0.00,VWS V13.01,2013-01-17 06:18:00,
2013-01-17 01:20:00,33.1,31.5,29.20,SSW,202,1.6,1.6,94,0.00,,---,0.00,VWS V13.01,2013-01-17 06:20:00,
2013-01-17 01:22:00,33.1,31.5,29.20,SSW,202,1.6,1.6,94,0.00,,---,0.00,VWS V13.01,2013-01-17 06:22:00,
2013-01-17 01:23:00,33.1,31.5,29.20,SSW,202,1.6,1.6,94,0.00,,---,0.00,VWS V13.01,2013-01-17 06:23:00,
2013-01-17 01:25:00,33.1,31.5,29.20,SSW,202,0.0,0.0,94,0.00,,---,0.00,VWS V13.01,2013-01-17 06:25:00,
2013-01-17 01:27:00,33.1,31.5,29.20,SSW,202,0.0,0.0,94,0.00,,---,0.00,VWS V13.01,2013-01-17 06:27:00,
2013-01-17 01:28:00,33.3,31.7,29.20,SSW,202,0.0,0.0,94,0.00,,---,0.00,VWS V13.01,2013-01-17 06:28:00,
2013-01-17 01:30:00,33.3,31.7,29.20,West,270,0.0,0.0,94,0.00,,---,0.00,VWS V13.01,2013-01-17 06:30:00,
2013-01-17 01:32:00,33.3,31.7,29.20,West,270,0.0,0.0,94,0.00,,---,0.00,VWS V13.01,2013-01-17 06:32:00,
2013-01-17 01:33:00,33.3,31.7,29.20,West,270,0.0,0.0,94,0.00,,---,0.00,VWS V13.01,2013-01-17 06:33:00,
2013-01-17 01:35:00,33.3,31.7,29.20,West,270,0.0,0.0,94,0.00,,---,0.00,VWS V13.01,2013-01-17 06:35:00,
2013-01-17 01:37:00,33.3,31.7,29.20,West,270,0.0,0.0,94,0.00,,---,0.00,VWS V13.01,2013-01-17 06:37:00,
2013-01-17 01:38:00,33.3,31.7,29.20,West,270,0.0,0.0,94,0.00,,---,0.00,VWS V13.01,2013-01-17 06:38:00,
2013-01-17 01:40:00,33.3,31.7,29.20,West,270,0.0,0.0,94,0.00,,---,0.00,VWS V13.01,2013-01-17 06:40:00,
2013-01-17 01:42:00,33.3,31.7,29.20,West,270,0.0,0.0,94,0.00,,---,0.00,VWS V13.01,2013-01-17 06:42:00,
2013-01-17 01:43:00,33.3,31.7,29.20,West,270,0.0,0.0,94,0.00,,---,0.00,VWS V13.01,2013-01-17 06:43:00,
2013-01-17 01:45:00,33.3,31.5,29.20,West,270,0.0,0.0,93,0.00,,---,0.00,VWS V13.01,2013-01-17 06:45:00,
2013-01-17 01:48:00,33.3,31.5,29.20,West,270,0.0,0.0,93,0.00,,---,0.00,VWS V13.01,2013-01-17 06:48:00,
2013-01-17 01:50:00,33.3,31.5,29.20,West,270,0.0,0.0,93,0.00,,---,0.00,VWS V13.01,2013-01-17 06:50:00,
2013-01-17 01:53:00,33.4,31.6,29.20,West,270,0.0,0.0,93,0.00,,---,0.00,VWS V13.01,2013-01-17 06:53:00,
2013-01-17 01:55:00,33.4,31.6,29.20,SSW,202,0.0,0.0,93,0.00,,---,0.00,VWS V13.01,2013-01-17 06:55:00,
2013-01-17 01:58:00,33.4,31.6,29.20,SSW,202,0.0,0.0,93,0.00,,---,0.00,VWS V13.01,2013-01-17 06:58:00,
2013-01-17 01:59:00,33.4,31.6,29.20,SSW,202,0.0,0.0,93,0.00,,---,0.00,VWS V13.01,2013-01-17 06:59:00,
2013-01-17 02:00:00,33.4,31.6,29.20,SSW,202,0.0,0.0,93,0.00,,---,0.00,VWS V13.01,2013-01-17 07:00:00,
2013-01-17 02:03:00,33.4,31.6,29.20,SW,225,0.0,0.0,93,0.00,,---,0.00,VWS V13.01,2013-01-17 07:03:00,
2013-01-17 02:04:00,33.4,31.6,29.20,SW,225,0.0,0.0,93,0.00,,---,0.00,VWS V13.01,2013-01-17 07:04:00,
2013-01-17 02:05:00,33.4,31.6,29.20,SW,225,0.0,0.0,93,0.00,,---,0.00,VWS V13.01,2013-01-17 07:05:00,
2013-01-17 02:08:00,33.4,31.6,29.20,SW,225,0.0,0.0,93,0.00,,---,0.00,VWS V13.01,2013-01-17 07:08:00,
2013-01-17 02:09:00,33.4,31.6,29.20,SW,225,0.0,0.0,93,0.00,,---,0.00,VWS V13.01,2013-01-17 07:09:00,
2013-01-17 02:10:00,33.4,31.6,29.20,SW,225,0.0,0.0,93,0.00,,---,0.00,VWS V13.01,2013-01-17 07:10:00,
2013-01-17 02:13:00,33.4,31.6,29.20,SW,225,0.0,0.0,93,0.00,,---,0.00,VWS V13.01,2013-01-17 07:13:00,
2013-01-17 02:14:00,33.4,31.6,29.20,SW,225,0.0,0.0,93,0.00,,---,0.00,VWS V13.01,2013-01-17 07:14:00,
2013-01-17 02:15:00,33.3,31.2,29.20,SW,225,0.0,0.0,92,0.00,,---,0.00,VWS V13.01,2013-01-17 07:15:00,
2013-01-17 02:18:00,33.3,30.9,29.20,SW,225,0.0,0.0,91,0.00,,---,0.00,VWS V13.01,2013-01-17 07:18:00,
2013-01-17 02:19:00,33.3,30.9,29.20,SW,225,0.0,0.0,91,0.00,,---,0.00,VWS V13.01,2013-01-17 07:19:00,
2013-01-17 02:21:00,33.3,30.9,29.20,SW,225,0.0,0.0,91,0.00,,---,0.00,VWS V13.01,2013-01-17 07:21:00,
2013-01-17 02:23:00,33.3,30.9,29.20,SW,225,0.0,0.0,91,0.00,,---,0.00,VWS V13.01,2013-01-17 07:23:00,
2013-01-17 02:24:00,33.3,30.9,29.20,SW,225,0.0,0.0,91,0.00,,---,0.00,VWS V13.01,2013-01-17 07:24:00,
2013-01-17 02:26:00,33.3,30.9,29.20,SW,225,0.0,0.0,91,0.00,,---,0.00,VWS V13.01,2013-01-17 07:26:00,
2013-01-17 02:28:00,33.3,30.9,29.20,SSW,202,0.0,0.0,91,0.00,,---,0.00,VWS V13.01,2013-01-17 07:28:00,
2013-01-17 02:29:00,33.3,30.9,29.20,SSW,202,0.0,0.0,91,0.00,,---,0.00,VWS V13.01,2013-01-17 07:29:00,
2013-01-17 02:31:00,33.3,30.9,29.20,SSW,202,0.0,0.0,91,0.00,,---,0.00,VWS V13.01,2013-01-17 07:31:00,
2013-01-17 02:34:00,33.3,30.9,29.20,SSW,202,0.0,0.0,91,0.00,,---,0.00,VWS V13.01,2013-01-17 07:34:00,
2013-01-17 02:36:00,33.3,30.9,29.20,SSW,202,0.0,0.0,91,0.00,,---,0.00,VWS V13.01,2013-01-17 07:36:00,
2013-01-17 02:39:00,33.3,30.9,29.20,SSW,202,0.0,0.0,91,0.00,,---,0.00,VWS V13.01,2013-01-17 07:39:00,
2013-01-17 02:41:00,33.3,30.9,29.20,SSW,202,0.0,0.0,91,0.00,,---,0.00,VWS V13.01,2013-01-17 07:41:00,
2013-01-17 02:44:00,33.3,30.9,29.20,SSW,202,0.0,0.0,91,0.00,,---,0.00,VWS V13.01,2013-01-17 07:44:00,
2013-01-17 02:46:00,33.3,30.9,29.20,SSW,202,0.0,0.0,91,0.00,,---,0.00,VWS V13.01,2013-01-17 07:46:00,
2013-01-17 02:49:00,33.3,30.9,29.20,SSW,202,0.0,0.0,91,0.00,,---,0.00,VWS V13.01,2013-01-17 07:49:00,
2013-01-17 02:51:00,33.3,30.9,29.20,SSW,202,0.0,0.0,91,0.00,,---,0.00,VWS V13.01,2013-01-17 07:51:00,
2013-01-17 02:54:00,33.3,30.9,29.20,SSW,202,0.0,0.0,91,0.00,,---,0.00,VWS V13.01,2013-01-17 07:54:00,
2013-01-17 02:56:00,33.3,30.6,29.20,SSW,202,0.0,0.0,90,0.00,,---,0.00,VWS V13.01,2013-01-17 07:56:00,
2013-01-17 02:59:00,33.3,30.6,29.20,SSW,202,0.0,0.0,90,0.00,,---,0.00,VWS V13.01,2013-01-17 07:59:00,
2013-01-17 03:00:00,33.4,30.8,29.20,SSW,202,0.0,0.0,90,0.00,,---,0.00,VWS V13.01,2013-01-17 08:00:00,
2013-01-17 03:01:00,33.4,30.8,29.20,WSW,248,3.1,3.1,90,0.00,,---,0.00,VWS V13.01,2013-01-17 08:01:00,
2013-01-17 03:04:00,33.4,30.8,29.20,WSW,248,3.1,3.1,90,0.00,,---,0.00,VWS V13.01,2013-01-17 08:04:00,
2013-01-17 03:05:00,33.4,30.8,29.20,WSW,248,3.1,3.1,90,0.00,,---,0.00,VWS V13.01,2013-01-17 08:05:00,
2013-01-17 03:06:00,33.4,30.8,29.20,WSW,248,3.1,3.1,90,0.00,,---,0.00,VWS V13.01,2013-01-17 08:06:00,
2013-01-17 03:09:00,33.4,30.8,29.20,WSW,248,3.1,3.1,90,0.00,,---,0.00,VWS V13.01,2013-01-17 08:09:00,
2013-01-17 03:10:00,33.4,30.8,29.20,WSW,248,3.1,3.1,90,0.00,,---,0.00,VWS V13.01,2013-01-17 08:10:00,
2013-01-17 03:11:00,33.4,30.8,29.20,WSW,248,3.1,3.1,90,0.00,,---,0.00,VWS V13.01,2013-01-17 08:11:00,
2013-01-17 03:14:00,33.4,30.8,29.20,WSW,248,2.9,3.1,90,0.00,,---,0.00,VWS V13.01,2013-01-17 08:14:00,
2013-01-17 03:15:00,33.4,30.8,29.20,WSW,248,2.9,3.1,90,0.00,,---,0.00,VWS V13.01,2013-01-17 08:15:00,
2013-01-17 03:16:00,33.4,30.8,29.20,WSW,248,2.9,2.9,90,0.00,,---,0.00,VWS V13.01,2013-01-17 08:16:00,
2013-01-17 03:19:00,33.4,30.8,29.20,WSW,248,2.9,2.9,90,0.00,,---,0.00,VWS V13.01,2013-01-17 08:19:00,
2013-01-17 03:20:00,33.4,30.8,29.20,WSW,248,2.9,2.9,90,0.00,,---,0.00,VWS V13.01,2013-01-17 08:20:00,
2013-01-17 03:22:00,33.4,30.8,29.20,WSW,248,2.9,2.9,90,0.00,,---,0.00,VWS V13.01,2013-01-17 08:22:00,
2013-01-17 03:24:00,33.4,30.8,29.20,WSW,248,2.9,2.9,90,0.00,,---,0.00,VWS V13.01,2013-01-17 08:24:00,
2013-01-17 03:25:00,33.4,30.8,29.20,WSW,248,2.9,2.9,90,0.00,,---,0.00,VWS V13.01,2013-01-17 08:25:00,
2013-01-17 03:27:00,33.4,30.8,29.20,WSW,248,2.9,2.9,90,0.00,,---,0.00,VWS V13.01,2013-01-17 08:27:00,
2013-01-17 03:30:00,33.6,30.7,29.20,WSW,248,2.9,2.9,89,0.00,,---,0.00,VWS V13.01,2013-01-17 08:30:00,
2013-01-17 03:32:00,33.6,30.7,29.20,SSW,202,0.0,0.0,89,0.00,,---,0.00,VWS V13.01,2013-01-17 08:32:00,
2013-01-17 03:35:00,33.6,30.7,29.20,West,270,1.3,1.3,89,0.00,,---,0.00,VWS V13.01,2013-01-17 08:35:00,
2013-01-17 03:37:00,33.6,30.7,29.20,West,270,1.3,1.3,89,0.00,,---,0.00,VWS V13.01,2013-01-17 08:37:00,
2013-01-17 03:40:00,33.6,30.7,29.20,West,270,1.3,1.3,89,0.00,,---,0.00,VWS V13.01,2013-01-17 08:40:00,
2013-01-17 03:42:00,33.6,30.7,29.20,West,270,1.3,1.3,89,0.00,,---,0.00,VWS V13.01,2013-01-17 08:42:00,
2013-01-17 03:45:00,33.6,30.7,29.20,West,270,1.3,1.3,89,0.00,,---,0.00,VWS V13.01,2013-01-17 08:45:00,
2013-01-17 03:46:00,33.6,30.7,29.20,West,270,1.3,1.3,89,0.00,,---,0.00,VWS V13.01,2013-01-17 08:46:00,
2013-01-17 03:47:00,33.6,30.7,29.20,West,270,1.3,1.3,89,0.00,,---,0.00,VWS V13.01,2013-01-17 08:47:00,
2013-01-17 03:50:00,33.4,30.3,29.20,West,270,1.3,1.3,88,0.00,,---,0.00,VWS V13.01,2013-01-17 08:50:00,
2013-01-17 03:51:00,33.4,30.3,29.20,West,270,1.3,1.3,88,0.00,,---,0.00,VWS V13.01,2013-01-17 08:51:00,
2013-01-17 03:52:00,33.4,30.3,29.20,West,270,1.3,1.3,88,0.00,,---,0.00,VWS V13.01,2013-01-17 08:52:00,
2013-01-17 03:55:00,33.3,30.1,29.20,West,270,1.3,1.3,88,0.00,,---,0.00,VWS V13.01,2013-01-17 08:55:00,
2013-01-17 03:56:00,33.3,30.1,29.20,West,270,1.3,1.3,88,0.00,,---,0.00,VWS V13.01,2013-01-17 08:56:00,
2013-01-17 03:57:00,33.3,30.1,29.20,West,270,1.3,1.3,88,0.00,,---,0.00,VWS V13.01,2013-01-17 08:57:00,
2013-01-17 04:00:00,33.3,30.1,29.20,West,270,1.3,1.3,88,0.00,,---,0.00,VWS V13.01,2013-01-17 09:00:00,
2013-01-17 04:01:00,33.3,30.1,29.20,West,270,1.3,1.3,88,0.00,,---,0.00,VWS V13.01,2013-01-17 09:01:00,
2013-01-17 04:02:00,33.3,30.1,29.20,West,270,1.3,1.3,88,0.00,,---,0.00,VWS V13.01,2013-01-17 09:02:00,
2013-01-17 04:05:00,33.3,30.1,29.17,WSW,248,0.9,2.0,88,0.00,,---,0.00,VWS V13.01,2013-01-17 09:05:00,
2013-01-17 04:06:00,33.3,30.1,29.17,WSW,248,0.9,2.0,88,0.00,,---,0.00,VWS V13.01,2013-01-17 09:06:00,
2013-01-17 04:07:00,33.3,30.1,29.17,WSW,248,0.9,0.9,88,0.00,,---,0.00,VWS V13.01,2013-01-17 09:07:00,
2013-01-17 04:10:00,33.3,30.1,29.17,WSW,248,0.9,0.9,88,0.00,,---,0.00,VWS V13.01,2013-01-17 09:10:00,
2013-01-17 04:11:00,33.3,30.1,29.17,WSW,248,0.9,0.9,88,0.00,,---,0.00,VWS V13.01,2013-01-17 09:11:00,
2013-01-17 04:12:00,33.3,30.1,29.17,WSW,248,0.9,0.9,88,0.00,,---,0.00,VWS V13.01,2013-01-17 09:12:00,
2013-01-17 04:15:00,33.3,30.1,29.17,WNW,292,1.3,1.3,88,0.00,,---,0.00,VWS V13.01,2013-01-17 09:15:00,
2013-01-17 04:16:00,33.3,30.1,29.17,WNW,292,1.3,1.3,88,0.00,,---,0.00,VWS V13.01,2013-01-17 09:16:00,
2013-01-17 04:17:00,33.3,30.1,29.17,WNW,292,1.3,1.3,88,0.00,,---,0.00,VWS V13.01,2013-01-17 09:17:00,
2013-01-17 04:20:00,33.3,29.8,29.20,WNW,292,1.3,1.3,87,0.00,,---,0.00,VWS V13.01,2013-01-17 09:20:00,
2013-01-17 04:21:00,33.3,29.8,29.20,WNW,292,1.3,1.3,87,0.00,,---,0.00,VWS V13.01,2013-01-17 09:21:00,
2013-01-17 04:22:00,33.3,29.8,29.20,WNW,292,1.3,1.3,87,0.00,,---,0.00,VWS V13.01,2013-01-17 09:22:00,
2013-01-17 04:25:00,33.3,29.5,29.20,WNW,292,1.3,1.3,86,0.00,,---,0.00,VWS V13.01,2013-01-17 09:25:00,
2013-01-17 04:26:00,33.3,29.5,29.20,WNW,292,1.3,1.3,86,0.00,,---,0.00,VWS V13.01,2013-01-17 09:26:00,
2013-01-17 04:28:00,33.3,29.5,29.20,WNW,292,1.3,1.3,86,0.00,,---,0.00,VWS V13.01,2013-01-17 09:28:00,
2013-01-17 04:31:00,33.3,29.5,29.20,WNW,292,1.3,1.3,86,0.00,,---,0.00,VWS V13.01,2013-01-17 09:31:00,
2013-01-17 04:33:00,33.3,29.5,29.20,WNW,292,1.3,1.3,86,0.00,,---,0.00,VWS V13.01,2013-01-17 09:33:00,
2013-01-17 04:36:00,33.3,29.5,29.20,WNW,292,1.3,1.3,86,0.00,,---,0.00,VWS V13.01,2013-01-17 09:36:00,
2013-01-17 04:38:00,33.3,29.5,29.17,WNW,292,1.3,1.3,86,0.00,,---,0.00,VWS V13.01,2013-01-17 09:38:00,
2013-01-17 04:41:00,33.3,29.5,29.17,WNW,292,1.3,1.3,86,0.00,,---,0.00,VWS V13.01,2013-01-17 09:41:00,
2013-01-17 04:43:00,33.3,29.5,29.17,WNW,292,1.3,1.3,86,0.00,,---,0.00,VWS V13.01,2013-01-17 09:43:00,
2013-01-17 04:46:00,33.3,29.5,29.17,WNW,292,1.3,1.3,86,0.00,,---,0.00,VWS V13.01,2013-01-17 09:46:00,
2013-01-17 04:48:00,33.3,29.5,29.17,WNW,292,1.3,1.3,86,0.00,,---,0.00,VWS V13.01,2013-01-17 09:48:00,
2013-01-17 04:51:00,33.3,29.5,29.20,WNW,292,1.3,1.3,86,0.00,,---,0.00,VWS V13.01,2013-01-17 09:51:00,
2013-01-17 04:53:00,33.3,29.5,29.20,WNW,292,1.3,1.3,86,0.00,,---,0.00,VWS V13.01,2013-01-17 09:53:00,
2013-01-17 04:56:00,33.3,29.5,29.20,WNW,292,1.3,1.3,86,0.00,,---,0.00,VWS V13.01,2013-01-17 09:56:00,
2013-01-17 04:58:00,33.3,29.5,29.20,WNW,292,1.3,1.3,86,0.00,,---,0.00,VWS V13.01,2013-01-17 09:58:00,
2013-01-17 05:01:00,33.3,29.5,29.20,WNW,292,1.3,1.3,86,0.00,,---,0.00,VWS V13.01,2013-01-17 10:01:00,
2013-01-17 05:02:00,33.1,29.4,29.20,WNW,292,1.3,1.3,86,0.00,,---,0.00,VWS V13.01,2013-01-17 10:02:00,
2013-01-17 05:03:00,33.1,29.4,29.20,WNW,292,1.3,1.3,86,0.00,,---,0.00,VWS V13.01,2013-01-17 10:03:00,
2013-01-17 05:06:00,33.1,29.4,29.20,WNW,292,1.3,1.3,86,0.00,,---,0.00,VWS V13.01,2013-01-17 10:06:00,
2013-01-17 05:07:00,33.1,29.4,29.20,WNW,292,1.3,1.3,86,0.00,,---,0.00,VWS V13.01,2013-01-17 10:07:00,
2013-01-17 05:08:00,33.1,29.4,29.20,WNW,292,1.3,1.3,86,0.00,,---,0.00,VWS V13.01,2013-01-17 10:08:00,
2013-01-17 05:11:00,33.1,29.6,29.20,WNW,292,1.3,1.3,87,0.00,,---,0.00,VWS V13.01,2013-01-17 10:11:00,
2013-01-17 05:12:00,33.1,29.6,29.20,WNW,292,1.3,1.3,87,0.00,,---,0.00,VWS V13.01,2013-01-17 10:12:00,
2013-01-17 05:13:00,33.1,29.6,29.20,WNW,292,1.3,1.3,87,0.00,,---,0.00,VWS V13.01,2013-01-17 10:13:00,
2013-01-17 05:16:00,33.1,29.6,29.20,WNW,292,1.3,1.3,87,0.00,,---,0.00,VWS V13.01,2013-01-17 10:16:00,
2013-01-17 05:17:00,33.1,29.6,29.20,WNW,292,1.3,1.3,87,0.00,,---,0.00,VWS V13.01,2013-01-17 10:17:00,
2013-01-17 05:18:00,33.1,29.6,29.20,WNW,292,1.3,1.3,87,0.00,,---,0.00,VWS V13.01,2013-01-17 10:18:00,
2013-01-17 05:21:00,33.1,29.6,29.20,WNW,292,1.3,1.3,87,0.00,,---,0.00,VWS V13.01,2013-01-17 10:21:00,
2013-01-17 05:22:00,33.1,29.6,29.20,WNW,292,1.3,1.3,87,0.00,,---,0.00,VWS V13.01,2013-01-17 10:22:00,
2013-01-17 05:23:00,33.1,29.6,29.20,West,270,0.9,1.3,87,0.00,,---,0.00,VWS V13.01,2013-01-17 10:23:00,
2013-01-17 05:26:00,33.1,29.6,29.20,West,270,0.9,0.9,87,0.00,,---,0.00,VWS V13.01,2013-01-17 10:26:00,
2013-01-17 05:27:00,33.1,29.6,29.20,West,270,0.9,0.9,87,0.00,,---,0.00,VWS V13.01,2013-01-17 10:27:00,
2013-01-17 05:28:00,33.1,29.6,29.20,West,270,0.9,0.9,87,0.00,,---,0.00,VWS V13.01,2013-01-17 10:28:00,
2013-01-17 05:31:00,33.3,29.5,29.20,West,270,0.9,0.9,86,0.00,,---,0.00,VWS V13.01,2013-01-17 10:31:00,
2013-01-17 05:32:00,33.3,29.5,29.20,West,270,0.9,0.9,86,0.00,,---,0.00,VWS V13.01,2013-01-17 10:32:00,
2013-01-17 05:33:00,33.3,29.5,29.20,West,270,0.9,0.9,86,0.00,,---,0.00,VWS V13.01,2013-01-17 10:33:00,
2013-01-17 05:36:00,33.3,29.5,29.20,West,270,0.9,0.9,86,0.00,,---,0.00,VWS V13.01,2013-01-17 10:36:00,
2013-01-17 05:37:00,33.3,29.5,29.20,West,270,0.9,0.9,86,0.00,,---,0.00,VWS V13.01,2013-01-17 10:37:00,
2013-01-17 05:38:00,33.3,29.2,29.20,West,270,0.9,0.9,85,0.00,,---,0.00,VWS V13.01,2013-01-17 10:38:00,
2013-01-17 05:42:00,33.1,29.1,29.20,West,270,0.9,0.9,85,0.00,,---,0.00,VWS V13.01,2013-01-17 10:42:00,
2013-01-17 05:43:00,33.1,29.1,29.20,West,270,0.9,0.9,85,0.00,,---,0.00,VWS V13.01,2013-01-17 10:43:00,
2013-01-17 05:47:00,33.1,28.8,29.20,West,270,0.9,0.9,84,0.00,,---,0.00,VWS V13.01,2013-01-17 10:47:00,
2013-01-17 05:48:00,33.1,28.8,29.23,West,270,0.9,0.9,84,0.00,,---,0.00,VWS V13.01,2013-01-17 10:48:00,
2013-01-17 05:49:00,33.1,28.8,29.23,West,270,0.9,0.9,84,0.00,,---,0.00,VWS V13.01,2013-01-17 10:49:00,
2013-01-17 05:52:00,32.9,28.6,29.23,West,270,0.9,0.9,84,0.00,,---,0.00,VWS V13.01,2013-01-17 10:52:00,
2013-01-17 05:54:00,32.9,28.6,29.23,West,270,0.9,0.9,84,0.00,,---,0.00,VWS V13.01,2013-01-17 10:54:00,
2013-01-17 05:57:00,32.9,28.6,29.23,West,270,0.9,0.9,84,0.00,,---,0.00,VWS V13.01,2013-01-17 10:57:00,
2013-01-17 05:58:00,32.7,28.4,29.23,West,270,0.9,0.9,84,0.00,,---,0.00,VWS V13.01,2013-01-17 10:58:00,
2013-01-17 05:59:00,32.7,28.4,29.23,West,270,0.9,0.9,84,0.00,,---,0.00,VWS V13.01,2013-01-17 10:59:00,
2013-01-17 06:02:00,32.7,28.4,29.23,SW,225,0.0,1.6,84,0.00,,---,0.00,VWS V13.01,2013-01-17 11:02:00,
2013-01-17 06:03:00,32.7,28.4,29.23,SW,225,0.0,0.0,84,0.00,,---,0.00,VWS V13.01,2013-01-17 11:03:00,
2013-01-17 06:04:00,32.7,28.4,29.23,SW,225,0.0,0.0,84,0.00,,---,0.00,VWS V13.01,2013-01-17 11:04:00,
2013-01-17 06:07:00,32.7,28.4,29.23,SW,225,0.0,0.0,84,0.00,,---,0.00,VWS V13.01,2013-01-17 11:07:00,
2013-01-17 06:08:00,32.7,28.4,29.23,SW,225,0.0,0.0,84,0.00,,---,0.00,VWS V13.01,2013-01-17 11:08:00,
2013-01-17 06:09:00,32.7,28.4,29.23,SW,225,0.0,0.0,84,0.00,,---,0.00,VWS V13.01,2013-01-17 11:09:00,
2013-01-17 06:12:00,32.5,28.2,29.23,SW,225,0.0,0.0,84,0.00,,---,0.00,VWS V13.01,2013-01-17 11:12:00,
2013-01-17 06:13:00,32.5,28.2,29.23,SW,225,0.0,0.0,84,0.00,,---,0.00,VWS V13.01,2013-01-17 11:13:00,
2013-01-17 06:14:00,32.5,28.2,29.23,SW,225,0.0,0.0,84,0.00,,---,0.00,VWS V13.01,2013-01-17 11:14:00,
2013-01-17 06:17:00,32.5,28.2,29.23,SW,225,0.0,0.0,84,0.00,,---,0.00,VWS V13.01,2013-01-17 11:17:00,
2013-01-17 06:18:00,32.5,28.2,29.23,SW,225,0.0,0.0,84,0.00,,---,0.00,VWS V13.01,2013-01-17 11:18:00,
2013-01-17 06:19:00,32.5,28.2,29.23,SW,225,0.0,0.0,84,0.00,,---,0.00,VWS V13.01,2013-01-17 11:19:00,
2013-01-17 06:22:00,32.5,28.2,29.23,SW,225,0.0,0.0,84,0.00,,---,0.00,VWS V13.01,2013-01-17 11:22:00,
2013-01-17 06:23:00,32.5,28.2,29.23,SW,225,0.0,0.0,84,0.00,,---,0.00,VWS V13.01,2013-01-17 11:23:00,
2013-01-17 06:24:00,32.5,28.2,29.23,SW,225,0.0,0.0,84,0.00,,---,0.00,VWS V13.01,2013-01-17 11:24:00,
2013-01-17 06:28:00,32.5,28.2,29.23,SW,225,0.0,0.0,84,0.00,,---,0.00,VWS V13.01,2013-01-17 11:28:00,
2013-01-17 06:29:00,32.5,28.2,29.23,SW,225,0.0,0.0,84,0.00,,---,0.00,VWS V13.01,2013-01-17 11:29:00,
2013-01-17 06:36:00,32.5,28.0,29.23,SW,225,0.0,0.0,83,0.00,,---,0.00,VWS V13.01,2013-01-17 11:36:00,
2013-01-17 06:41:00,32.5,28.0,29.23,North,0,2.2,2.2,83,0.00,,---,0.00,VWS V13.01,2013-01-17 11:41:00,
2013-01-17 06:46:00,32.5,28.0,29.23,SW,225,1.6,2.2,83,0.00,,---,0.00,VWS V13.01,2013-01-17 11:46:00,
2013-01-17 06:51:00,32.5,28.0,29.23,NW,315,0.9,0.9,83,0.00,,---,0.00,VWS V13.01,2013-01-17 11:51:00,
2013-01-17 06:52:00,32.5,28.0,29.23,NW,315,0.9,0.9,83,0.00,,---,0.00,VWS V13.01,2013-01-17 11:52:00,
2013-01-17 06:56:00,32.5,28.0,29.23,NW,315,0.9,0.9,83,0.00,,---,0.00,VWS V13.01,2013-01-17 11:56:00,
2013-01-17 06:57:00,32.5,28.0,29.23,NW,315,0.9,0.9,83,0.00,,---,0.00,VWS V13.01,2013-01-17 11:57:00,
2013-01-17 07:01:00,32.5,28.0,29.23,NW,315,0.9,0.9,83,0.00,,---,0.00,VWS V13.01,2013-01-17 12:01:00,
2013-01-17 07:02:00,32.5,28.0,29.23,NW,315,0.9,0.9,83,0.00,,---,0.00,VWS V13.01,2013-01-17 12:02:00,
2013-01-17 07:06:00,32.7,27.8,29.23,WNW,292,0.9,0.9,82,0.00,,---,0.00,VWS V13.01,2013-01-17 12:06:00,
2013-01-17 07:07:00,32.7,27.8,29.23,WNW,292,0.9,0.9,82,0.00,,---,0.00,VWS V13.01,2013-01-17 12:07:00,
2013-01-17 07:11:00,32.7,27.8,29.23,WNW,292,0.9,0.9,82,0.00,,---,0.00,VWS V13.01,2013-01-17 12:11:00,
2013-01-17 07:12:00,32.7,27.8,29.23,WNW,292,0.9,0.9,82,0.00,,---,0.00,VWS V13.01,2013-01-17 12:12:00,
2013-01-17 07:20:00,32.9,28.0,29.26,NW,315,0.0,0.0,82,0.00,,---,0.00,VWS V13.01,2013-01-17 12:20:00,
2013-01-17 07:21:00,32.9,28.0,29.26,NW,315,0.0,0.0,82,0.00,,---,0.00,VWS V13.01,2013-01-17 12:21:00,
2013-01-17 07:26:00,32.9,28.0,29.26,NW,315,0.0,0.0,82,0.00,,---,0.00,VWS V13.01,2013-01-17 12:26:00,
2013-01-17 07:31:00,32.9,28.0,29.26,NW,315,0.0,0.0,82,0.00,,---,0.00,VWS V13.01,2013-01-17 12:31:00,
2013-01-17 07:36:00,32.9,28.0,29.23,NW,315,0.0,0.0,82,0.00,,---,0.00,VWS V13.01,2013-01-17 12:36:00,
2013-01-17 07:41:00,33.1,28.2,29.23,NW,315,0.0,0.0,82,0.00,,---,0.00,VWS V13.01,2013-01-17 12:41:00,
2013-01-17 07:42:00,33.1,28.2,29.23,NW,315,0.0,0.0,82,0.00,,---,0.00,VWS V13.01,2013-01-17 12:42:00,
2013-01-17 07:46:00,33.1,28.2,29.23,NW,315,0.0,0.0,82,0.00,,---,0.00,VWS V13.01,2013-01-17 12:46:00,
2013-01-17 07:47:00,33.1,28.2,29.23,NW,315,0.0,0.0,82,0.00,,---,0.00,VWS V13.01,2013-01-17 12:47:00,
2013-01-17 07:51:00,33.1,27.9,29.23,NW,315,0.0,0.0,81,0.00,,---,0.00,VWS V13.01,2013-01-17 12:51:00,
2013-01-17 07:52:00,33.1,27.9,29.23,NW,315,0.0,0.0,81,0.00,,---,0.00,VWS V13.01,2013-01-17 12:52:00,
2013-01-17 07:56:00,33.3,28.1,29.23,NW,315,0.0,0.0,81,0.00,,---,0.00,VWS V13.01,2013-01-17 12:56:00,
2013-01-17 07:57:00,33.3,28.1,29.23,NW,315,0.0,0.0,81,0.00,,---,0.00,VWS V13.01,2013-01-17 12:57:00,
2013-01-17 08:01:00,33.4,27.9,29.23,NW,315,0.0,0.0,80,0.00,,---,0.00,VWS V13.01,2013-01-17 13:01:00,
2013-01-17 08:02:00,33.4,27.9,29.23,NW,315,0.0,0.0,80,0.00,,---,0.00,VWS V13.01,2013-01-17 13:02:00,
2013-01-17 08:07:00,33.6,28.1,29.23,NW,315,0.0,0.0,80,0.00,,---,0.00,VWS V13.01,2013-01-17 13:07:00,
2013-01-17 08:08:00,33.6,28.1,29.23,NW,315,0.0,0.0,80,0.00,,---,0.00,VWS V13.01,2013-01-17 13:08:00,
2013-01-17 08:09:00,33.6,28.1,29.23,NW,315,0.0,0.0,80,0.00,,---,0.00,VWS V13.01,2013-01-17 13:09:00,
2013-01-17 08:12:00,33.6,28.1,29.23,NW,315,0.0,0.0,80,0.00,,---,0.00,VWS V13.01,2013-01-17 13:12:00,
2013-01-17 08:13:00,33.6,28.1,29.23,NW,315,0.0,0.0,80,0.00,,---,0.00,VWS V13.01,2013-01-17 13:13:00,
2013-01-17 08:14:00,33.8,28.0,29.23,NW,315,0.0,0.0,79,0.00,,---,0.00,VWS V13.01,2013-01-17 13:14:00,
2013-01-17 08:17:00,34.0,28.2,29.29,NW,315,0.0,0.0,79,0.00,,---,0.00,VWS V13.01,2013-01-17 13:17:00,
2013-01-17 08:18:00,34.0,28.2,29.29,NW,315,0.0,0.0,79,0.00,,---,0.00,VWS V13.01,2013-01-17 13:18:00,
2013-01-17 08:19:00,34.0,28.2,29.29,NW,315,0.0,0.0,79,0.00,,---,0.00,VWS V13.01,2013-01-17 13:19:00,
2013-01-17 08:23:00,34.2,28.3,29.29,NW,315,0.0,0.0,79,0.00,,---,0.00,VWS V13.01,2013-01-17 13:23:00,
2013-01-17 08:24:00,34.2,28.3,29.29,NW,315,0.0,0.0,79,0.00,,---,0.00,VWS V13.01,2013-01-17 13:24:00,
2013-01-17 08:29:00,34.3,28.2,29.29,NW,315,0.0,0.0,78,0.00,,---,0.00,VWS V13.01,2013-01-17 13:29:00,
2013-01-17 08:30:00,34.3,28.2,29.29,NW,315,0.0,0.0,78,0.00,,---,0.00,VWS V13.01,2013-01-17 13:30:00,
2013-01-17 08:34:00,34.5,28.4,29.29,NW,315,0.0,0.0,78,0.00,,---,0.00,VWS V13.01,2013-01-17 13:34:00,
2013-01-17 08:35:00,34.5,28.4,29.29,NW,315,0.0,0.0,78,0.00,,---,0.00,VWS V13.01,2013-01-17 13:35:00,
2013-01-17 08:39:00,34.7,28.5,29.29,NW,315,0.0,0.0,78,0.00,,---,0.00,VWS V13.01,2013-01-17 13:39:00,
2013-01-17 08:40:00,34.7,28.5,29.29,NW,315,0.0,0.0,78,0.00,,---,0.00,VWS V13.01,2013-01-17 13:40:00,
2013-01-17 08:44:00,35.1,28.9,29.29,NW,315,0.0,0.0,78,0.00,,---,0.00,VWS V13.01,2013-01-17 13:44:00,
2013-01-17 08:45:00,35.1,28.9,29.29,NW,315,0.0,0.0,78,0.00,,---,0.00,VWS V13.01,2013-01-17 13:45:00,
2013-01-17 08:49:00,35.1,28.9,29.29,NW,315,0.0,0.0,78,0.00,,---,0.00,VWS V13.01,2013-01-17 13:49:00,
2013-01-17 08:50:00,35.1,28.9,29.29,NW,315,0.0,0.0,78,0.00,,---,0.00,VWS V13.01,2013-01-17 13:50:00,
2013-01-17 08:54:00,35.4,29.2,29.29,NW,315,0.0,0.0,78,0.00,,---,0.00,VWS V13.01,2013-01-17 13:54:00,
2013-01-17 08:55:00,35.4,29.2,29.29,NW,315,0.0,0.0,78,0.00,,---,0.00,VWS V13.01,2013-01-17 13:55:00,
2013-01-17 08:59:00,35.4,28.9,29.29,NW,315,0.0,0.0,77,0.00,,---,0.00,VWS V13.01,2013-01-17 13:59:00,
2013-01-17 09:00:00,35.4,28.9,29.29,NW,315,0.0,0.0,77,0.00,,---,0.00,VWS V13.01,2013-01-17 14:00:00,
2013-01-17 09:05:00,35.6,29.1,29.29,NW,315,0.0,0.0,77,0.00,,---,0.00,VWS V13.01,2013-01-17 14:05:00,
2013-01-17 09:10:00,35.6,29.1,29.29,NW,315,0.0,0.0,77,0.00,,---,0.00,VWS V13.01,2013-01-17 14:10:00,
2013-01-17 09:11:00,35.6,29.1,29.29,NW,315,0.0,0.0,77,0.00,,---,0.00,VWS V13.01,2013-01-17 14:11:00,
2013-01-17 09:15:00,35.4,28.9,29.29,NW,315,0.0,0.0,77,0.00,,---,0.00,VWS V13.01,2013-01-17 14:15:00,
2013-01-17 09:16:00,35.4,28.9,29.29,NW,315,0.0,0.0,77,0.00,,---,0.00,VWS V13.01,2013-01-17 14:16:00,
2013-01-17 09:20:00,35.4,28.9,29.29,NW,315,0.0,0.0,77,0.00,,---,0.00,VWS V13.01,2013-01-17 14:20:00,
2013-01-17 09:21:00,35.4,28.9,29.29,NW,315,0.0,0.0,77,0.00,,---,0.00,VWS V13.01,2013-01-17 14:21:00,
2013-01-17 09:25:00,35.4,28.9,29.29,NW,315,0.0,0.0,77,0.00,,---,0.00,VWS V13.01,2013-01-17 14:25:00,
2013-01-17 09:26:00,35.4,28.9,29.29,NW,315,0.0,0.0,77,0.00,,---,0.00,VWS V13.01,2013-01-17 14:26:00,
2013-01-17 09:30:00,35.4,28.9,29.29,NW,315,0.0,0.0,77,0.00,,---,0.00,VWS V13.01,2013-01-17 14:30:00,
2013-01-17 09:31:00,35.4,28.9,29.29,NW,315,0.0,0.0,77,0.00,,---,0.00,VWS V13.01,2013-01-17 14:31:00,
2013-01-17 09:35:00,35.4,28.9,29.29,NW,315,0.0,0.0,77,0.00,,---,0.00,VWS V13.01,2013-01-17 14:35:00,
2013-01-17 09:36:00,35.4,28.9,29.29,NW,315,0.0,0.0,77,0.00,,---,0.00,VWS V13.01,2013-01-17 14:36:00,
2013-01-17 09:40:00,35.2,28.8,29.29,NW,315,0.0,0.0,77,0.00,,---,0.00,VWS V13.01,2013-01-17 14:40:00,
2013-01-17 09:41:00,35.2,28.8,29.29,NW,315,0.0,0.0,77,0.00,,---,0.00,VWS V13.01,2013-01-17 14:41:00,
2013-01-17 09:45:00,35.2,28.8,29.29,NW,315,0.0,0.0,77,0.00,,---,0.00,VWS V13.01,2013-01-17 14:45:00,
2013-01-17 09:46:00,35.2,28.8,29.29,NW,315,0.0,0.0,77,0.00,,---,0.00,VWS V13.01,2013-01-17 14:46:00,
2013-01-17 09:50:00,35.6,28.8,29.32,NW,315,0.0,0.0,76,0.00,,---,0.00,VWS V13.01,2013-01-17 14:50:00,
2013-01-17 09:51:00,35.6,28.8,29.32,NW,315,0.0,0.0,76,0.00,,---,0.00,VWS V13.01,2013-01-17 14:51:00,
2013-01-17 09:55:00,35.6,28.5,29.32,NW,315,0.0,0.0,75,0.00,,---,0.00,VWS V13.01,2013-01-17 14:55:00,
2013-01-17 09:56:00,35.6,28.5,29.32,NW,315,0.0,0.0,75,0.00,,---,0.00,VWS V13.01,2013-01-17 14:56:00,
2013-01-17 09:57:00,35.6,28.5,29.32,NW,315,0.0,0.0,75,0.00,,---,0.00,VWS V13.01,2013-01-17 14:57:00,
2013-01-17 10:00:00,35.8,29.0,29.32,NW,315,0.0,0.0,76,0.00,,---,0.00,VWS V13.01,2013-01-17 15:00:00,
2013-01-17 10:02:00,35.8,29.0,29.32,NW,315,0.0,0.0,76,0.00,,---,0.00,VWS V13.01,2013-01-17 15:02:00,
2013-01-17 10:05:00,36.0,28.8,29.32,NW,315,0.0,0.0,75,0.00,,---,0.00,VWS V13.01,2013-01-17 15:05:00,
2013-01-17 10:07:00,36.1,29.0,29.32,NW,315,0.0,0.0,75,0.00,,---,0.00,VWS V13.01,2013-01-17 15:07:00,
2013-01-17 10:08:00,36.1,29.0,29.32,NW,315,0.0,0.0,75,0.00,,---,0.00,VWS V13.01,2013-01-17 15:08:00,
2013-01-17 10:10:00,36.1,29.0,29.32,NW,315,0.0,0.0,75,0.00,,---,0.00,VWS V13.01,2013-01-17 15:10:00,
2013-01-17 10:11:00,36.3,29.2,29.32,NW,315,0.0,0.0,75,0.00,,---,0.00,VWS V13.01,2013-01-17 15:11:00,
2013-01-17 10:12:00,36.3,29.2,29.32,NW,315,0.0,0.0,75,0.00,,---,0.00,VWS V13.01,2013-01-17 15:12:00,
2013-01-17 10:13:00,36.5,29.3,29.32,NW,315,0.0,0.0,75,0.00,,---,0.00,VWS V13.01,2013-01-17 15:13:00,
2013-01-17 10:15:00,36.5,29.3,29.32,NW,315,0.0,0.0,75,0.00,,---,0.00,VWS V13.01,2013-01-17 15:15:00,
2013-01-17 10:16:00,36.7,29.5,29.32,NW,315,0.0,0.0,75,0.00,,---,0.00,VWS V13.01,2013-01-17 15:16:00,
2013-01-17 10:17:00,36.7,29.5,29.32,NW,315,0.0,0.0,75,0.00,,---,0.00,VWS V13.01,2013-01-17 15:17:00,
2013-01-17 10:18:00,36.7,29.5,29.32,NW,315,0.0,0.0,75,0.00,,---,0.00,VWS V13.01,2013-01-17 15:18:00,
2013-01-17 10:20:00,36.7,29.5,29.32,NW,315,0.0,0.0,75,0.00,,---,0.00,VWS V13.01,2013-01-17 15:20:00,
2013-01-17 10:22:00,36.9,29.4,29.32,NW,315,0.0,0.0,74,0.00,,---,0.00,VWS V13.01,2013-01-17 15:22:00,
2013-01-17 10:27:00,37.0,29.5,29.32,SSW,202,1.1,1.1,74,0.00,,---,0.00,VWS V13.01,2013-01-17 15:27:00,
2013-01-17 10:28:00,37.0,29.5,29.32,SSW,202,1.1,1.1,74,0.00,,---,0.00,VWS V13.01,2013-01-17 15:28:00,
2013-01-17 10:32:00,37.0,29.5,29.32,SSW,202,1.1,1.1,74,0.00,,---,0.00,VWS V13.01,2013-01-17 15:32:00,
2013-01-17 10:33:00,37.0,29.5,29.32,SSW,202,1.1,1.1,74,0.00,,---,0.00,VWS V13.01,2013-01-17 15:33:00,
2013-01-17 10:37:00,37.0,29.5,29.32,SSW,202,1.1,1.1,74,0.00,,---,0.00,VWS V13.01,2013-01-17 15:37:00,
2013-01-17 10:38:00,37.0,29.5,29.32,SSW,202,1.1,1.1,74,0.00,,---,0.00,VWS V13.01,2013-01-17 15:38:00,
2013-01-17 10:43:00,37.0,29.5,29.32,SSW,202,1.1,1.1,74,0.00,,---,0.00,VWS V13.01,2013-01-17 15:43:00,
2013-01-17 10:48:00,37.4,29.2,29.32,SSW,202,1.1,1.1,72,0.00,,---,0.00,VWS V13.01,2013-01-17 15:48:00,
2013-01-17 10:55:00,37.4,29.2,29.32,SSW,202,1.1,1.1,72,0.00,,---,0.00,VWS V13.01,2013-01-17 15:55:00,
2013-01-17 10:56:00,37.4,29.2,29.32,SSW,202,1.1,1.1,72,0.00,,---,0.00,VWS V13.01,2013-01-17 15:56:00,
2013-01-17 11:00:00,37.4,29.2,29.32,SSW,202,1.1,1.1,72,0.00,,---,0.00,VWS V13.01,2013-01-17 16:00:00,
2013-01-17 11:01:00,37.4,29.2,29.32,SSW,202,1.1,1.1,72,0.00,,---,0.00,VWS V13.01,2013-01-17 16:01:00,
2013-01-17 11:05:00,37.4,28.9,29.32,SSW,202,1.1,1.1,71,0.00,,---,0.00,VWS V13.01,2013-01-17 16:05:00,
2013-01-17 11:06:00,37.4,28.9,29.32,SSW,202,1.1,1.1,71,0.00,,---,0.00,VWS V13.01,2013-01-17 16:06:00,
2013-01-17 11:10:00,37.4,28.9,29.32,SSW,202,1.1,1.1,71,0.00,,---,0.00,VWS V13.01,2013-01-17 16:10:00,
2013-01-17 11:11:00,37.4,28.9,29.32,SSW,202,1.1,1.1,71,0.00,,---,0.00,VWS V13.01,2013-01-17 16:11:00,
2013-01-17 11:15:00,37.4,28.9,29.32,SSW,202,1.1,1.1,71,0.00,,---,0.00,VWS V13.01,2013-01-17 16:15:00,
2013-01-17 11:16:00,37.4,28.9,29.32,SSW,202,1.1,1.1,71,0.00,,---,0.00,VWS V13.01,2013-01-17 16:16:00,
2013-01-17 11:21:00,38.5,29.9,29.32,SSW,202,1.1,1.1,71,0.04,,---,0.04,VWS V13.01,2013-01-17 16:21:00,
2013-01-17 11:22:00,38.5,29.9,29.32,SSW,202,1.1,1.1,71,0.04,,---,0.04,VWS V13.01,2013-01-17 16:22:00,
2013-01-17 11:26:00,38.8,30.3,29.32,SSW,202,1.1,1.1,71,0.04,,---,0.04,VWS V13.01,2013-01-17 16:26:00,
2013-01-17 11:27:00,38.8,30.3,29.32,SSW,202,1.1,1.1,71,0.04,,---,0.04,VWS V13.01,2013-01-17 16:27:00,
2013-01-17 11:31:00,38.8,29.9,29.32,SSW,202,1.1,1.1,70,0.04,,---,0.04,VWS V13.01,2013-01-17 16:31:00,
2013-01-17 11:32:00,38.8,29.9,29.32,SSW,202,1.1,1.1,70,0.04,,---,0.04,VWS V13.01,2013-01-17 16:32:00,
2013-01-17 11:36:00,39.2,29.9,29.32,SSW,202,1.1,1.1,69,0.04,,---,0.04,VWS V13.01,2013-01-17 16:36:00,
2013-01-17 11:37:00,39.2,29.9,29.32,SSW,202,1.1,1.1,69,0.04,,---,0.04,VWS V13.01,2013-01-17 16:37:00,
2013-01-17 11:41:00,39.2,29.5,29.32,SSW,202,1.1,1.1,68,0.04,,---,0.04,VWS V13.01,2013-01-17 16:41:00,
2013-01-17 11:42:00,39.2,29.5,29.32,SSW,202,1.1,1.1,68,0.04,,---,0.04,VWS V13.01,2013-01-17 16:42:00,
2013-01-17 11:49:00,39.6,29.9,29.32,SSW,202,1.1,1.1,68,0.04,,---,0.04,VWS V13.01,2013-01-17 16:49:00,
2013-01-17 11:53:00,39.6,29.1,29.32,SSW,202,1.1,1.1,66,0.04,,---,0.04,VWS V13.01,2013-01-17 16:53:00,
2013-01-17 11:54:00,39.7,29.3,29.32,SSW,202,1.1,1.1,66,0.04,,---,0.04,VWS V13.01,2013-01-17 16:54:00,
2013-01-17 11:58:00,39.9,29.9,29.32,SSW,202,1.1,1.1,67,0.04,,---,0.04,VWS V13.01,2013-01-17 16:58:00,
2013-01-17 11:59:00,40.1,30.0,29.32,SSW,202,1.1,1.1,67,0.04,,---,0.04,VWS V13.01,2013-01-17 16:59:00,
2013-01-17 12:03:00,40.3,30.2,29.32,SSW,202,1.1,1.1,67,0.04,,---,0.04,VWS V13.01,2013-01-17 17:03:00,
2013-01-17 12:05:00,40.3,30.2,29.32,SSW,202,1.1,1.1,67,0.04,,---,0.04,VWS V13.01,2013-01-17 17:05:00,
2013-01-17 12:08:00,40.5,30.0,29.32,SSW,202,1.1,1.1,66,0.04,,---,0.04,VWS V13.01,2013-01-17 17:08:00,
2013-01-17 12:10:00,40.6,30.2,29.32,SSW,202,1.1,1.1,66,0.04,,---,0.04,VWS V13.01,2013-01-17 17:10:00,
2013-01-17 12:13:00,40.6,29.8,29.32,SSW,202,1.1,1.1,65,0.04,,---,0.04,VWS V13.01,2013-01-17 17:13:00,
2013-01-17 12:14:00,40.6,29.4,29.32,SSW,202,1.1,1.1,64,0.04,,---,0.04,VWS V13.01,2013-01-17 17:14:00,
2013-01-17 12:15:00,40.6,29.4,29.32,SSW,202,1.1,1.1,64,0.04,,---,0.04,VWS V13.01,2013-01-17 17:15:00,
2013-01-17 12:18:00,40.5,29.6,29.32,SSW,202,1.1,1.1,65,0.04,,---,0.04,VWS V13.01,2013-01-17 17:18:00,
2013-01-17 12:19:00,40.5,28.9,29.32,SSW,202,1.1,1.1,63,0.04,,---,0.04,VWS V13.01,2013-01-17 17:19:00,
2013-01-17 12:20:00,40.5,28.9,29.32,SSW,202,1.1,1.1,63,0.04,,---,0.04,VWS V13.01,2013-01-17 17:20:00,
2013-01-17 12:23:00,40.3,29.1,29.32,SSW,202,1.1,1.1,64,0.00,,---,0.04,VWS V13.01,2013-01-17 17:23:00,
2013-01-17 12:24:00,40.3,28.7,29.32,SSW,202,1.1,1.1,63,0.00,,---,0.04,VWS V13.01,2013-01-17 17:24:00,
2013-01-17 12:25:00,40.3,28.7,29.32,SSW,202,1.1,1.1,63,0.00,,---,0.04,VWS V13.01,2013-01-17 17:25:00,
2013-01-17 12:28:00,40.5,29.3,29.32,SSW,202,1.1,1.1,64,0.00,,---,0.04,VWS V13.01,2013-01-17 17:28:00,
2013-01-17 12:29:00,40.5,29.3,29.32,SSW,202,1.1,1.1,64,0.00,,---,0.04,VWS V13.01,2013-01-17 17:29:00,
2013-01-17 12:30:00,40.5,29.3,29.32,SSW,202,1.1,1.1,64,0.00,,---,0.04,VWS V13.01,2013-01-17 17:30:00,
2013-01-17 12:33:00,40.5,29.3,29.32,SSW,202,1.1,1.1,64,0.00,,---,0.04,VWS V13.01,2013-01-17 17:33:00,
2013-01-17 12:34:00,40.5,29.3,29.32,SSW,202,1.1,1.1,64,0.00,,---,0.04,VWS V13.01,2013-01-17 17:34:00,
2013-01-17 12:35:00,40.3,28.7,29.32,SSW,202,1.1,1.1,63,0.00,,---,0.04,VWS V13.01,2013-01-17 17:35:00,
2013-01-17 12:38:00,40.5,28.9,29.32,SSW,202,1.1,1.1,63,0.04,,---,0.08,VWS V13.01,2013-01-17 17:38:00,
2013-01-17 12:39:00,40.5,28.9,29.32,SSW,202,1.1,1.1,63,0.04,,---,0.08,VWS V13.01,2013-01-17 17:39:00,
2013-01-17 12:40:00,40.5,29.3,29.32,SSW,202,1.1,1.1,64,0.04,,---,0.08,VWS V13.01,2013-01-17 17:40:00,
2013-01-17 12:41:00,40.5,29.3,29.32,SSW,202,1.1,1.1,64,0.04,,---,0.08,VWS V13.01,2013-01-17 17:41:00,
2013-01-17 12:43:00,40.5,29.3,29.32,NNW,338,2.7,2.7,64,0.04,,---,0.08,VWS V13.01,2013-01-17 17:43:00,
2013-01-17 12:44:00,40.5,29.3,29.32,NNW,338,2.7,2.7,64,0.04,,---,0.08,VWS V13.01,2013-01-17 17:44:00,
2013-01-17 12:45:00,40.5,29.3,29.32,NNW,338,2.7,2.7,64,0.04,,---,0.08,VWS V13.01,2013-01-17 17:45:00,
2013-01-17 12:46:00,40.5,29.3,29.32,WNW,292,0.0,2.7,64,0.04,,---,0.08,VWS V13.01,2013-01-17 17:46:00,
2013-01-17 12:48:00,40.5,29.3,29.32,WSW,248,1.1,1.1,64,0.04,,---,0.08,VWS V13.01,2013-01-17 17:48:00,
2013-01-17 12:49:00,40.5,29.3,29.32,WSW,248,1.1,1.1,64,0.04,,---,0.08,VWS V13.01,2013-01-17 17:49:00,
2013-01-17 12:50:00,40.5,29.3,29.32,West,270,3.6,3.6,64,0.04,,---,0.08,VWS V13.01,2013-01-17 17:50:00,
2013-01-17 12:51:00,40.5,29.3,29.32,West,270,3.6,3.6,64,0.04,,---,0.08,VWS V13.01,2013-01-17 17:51:00,
2013-01-17 12:53:00,40.5,28.9,29.32,West,270,3.6,3.6,63,0.04,,---,0.08,VWS V13.01,2013-01-17 17:53:00,
2013-01-17 12:54:00,40.5,28.9,29.32,West,270,3.6,3.6,63,0.04,,---,0.08,VWS V13.01,2013-01-17 17:54:00,
2013-01-17 12:55:00,40.5,28.9,29.32,West,270,3.6,3.6,63,0.04,,---,0.08,VWS V13.01,2013-01-17 17:55:00,
2013-01-17 12:56:00,40.5,28.9,29.32,WSW,248,1.6,3.6,63,0.04,,---,0.08,VWS V13.01,2013-01-17 17:56:00,
2013-01-17 12:58:00,40.6,29.4,29.32,WSW,248,1.6,1.6,64,0.04,,---,0.08,VWS V13.01,2013-01-17 17:58:00,
2013-01-17 12:59:00,40.6,29.4,29.32,SSW,202,1.3,1.6,64,0.04,,---,0.08,VWS V13.01,2013-01-17 17:59:00,
2013-01-17 13:00:00,40.8,29.2,29.32,SSW,202,1.3,1.3,63,0.04,,---,0.08,VWS V13.01,2013-01-17 18:00:00,
2013-01-17 13:01:00,40.8,29.2,29.32,SSW,202,1.3,1.3,63,0.04,,---,0.08,VWS V13.01,2013-01-17 18:01:00,
2013-01-17 13:03:00,40.8,29.2,29.32,SSW,202,1.3,1.3,63,0.04,,---,0.08,VWS V13.01,2013-01-17 18:03:00,
2013-01-17 13:04:00,40.8,29.2,29.32,SSW,202,1.3,1.3,63,0.04,,---,0.08,VWS V13.01,2013-01-17 18:04:00,
2013-01-17 13:05:00,40.8,29.2,29.32,SSW,202,1.3,1.3,63,0.04,,---,0.13,VWS V13.01,2013-01-17 18:05:00,
2013-01-17 13:06:00,40.8,29.2,29.32,West,270,2.5,2.5,63,0.09,,---,0.13,VWS V13.01,2013-01-17 18:06:00,
2013-01-17 13:08:00,40.8,29.2,29.32,West,270,3.1,3.1,63,0.09,,---,0.13,VWS V13.01,2013-01-17 18:08:00,
2013-01-17 13:09:00,40.8,29.2,29.32,WSW,248,2.2,2.2,63,0.09,,---,0.13,VWS V13.01,2013-01-17 18:09:00,
2013-01-17 13:10:00,40.8,29.2,29.32,WSW,248,2.2,2.2,63,0.09,,---,0.13,VWS V13.01,2013-01-17 18:10:00,
2013-01-17 13:11:00,40.8,29.2,29.32,WSW,248,2.2,2.2,63,0.09,,---,0.13,VWS V13.01,2013-01-17 18:11:00,
2013-01-17 13:13:00,40.8,28.8,29.32,WSW,248,2.2,2.2,62,0.09,,---,0.13,VWS V13.01,2013-01-17 18:13:00,
2013-01-17 13:15:00,40.8,28.8,29.32,NW,315,4.3,4.3,62,0.09,,---,0.13,VWS V13.01,2013-01-17 18:15:00,
2013-01-17 13:16:00,40.8,28.8,29.32,NW,315,4.3,4.3,62,0.09,,---,0.13,VWS V13.01,2013-01-17 18:16:00,
2013-01-17 13:18:00,40.8,28.8,29.32,NW,315,4.3,4.3,62,0.09,,---,0.13,VWS V13.01,2013-01-17 18:18:00,
2013-01-17 13:20:00,40.8,29.2,29.32,NW,315,4.3,4.3,63,0.09,,---,0.13,VWS V13.01,2013-01-17 18:20:00,
2013-01-17 13:21:00,40.8,29.2,29.32,NW,315,4.3,4.3,63,0.09,,---,0.13,VWS V13.01,2013-01-17 18:21:00,
2013-01-17 13:24:00,40.8,29.2,29.32,NW,315,4.3,4.3,63,0.09,,---,0.13,VWS V13.01,2013-01-17 18:24:00,
2013-01-17 13:25:00,40.8,29.2,29.32,NW,315,4.3,4.3,63,0.09,,---,0.13,VWS V13.01,2013-01-17 18:25:00,
2013-01-17 13:26:00,40.8,29.2,29.32,NW,315,4.3,4.3,63,0.09,,---,0.13,VWS V13.01,2013-01-17 18:26:00,
2013-01-17 13:29:00,40.8,29.2,29.32,WSW,248,1.3,4.3,63,0.09,,---,0.13,VWS V13.01,2013-01-17 18:29:00,
2013-01-17 13:30:00,40.6,28.6,29.32,WSW,248,1.3,1.3,62,0.09,,---,0.13,VWS V13.01,2013-01-17 18:30:00,
2013-01-17 13:31:00,40.6,28.6,29.32,WSW,248,1.3,1.3,62,0.09,,---,0.13,VWS V13.01,2013-01-17 18:31:00,
2013-01-17 13:36:00,40.6,28.6,29.32,WSW,248,1.3,1.3,62,0.09,,---,0.13,VWS V13.01,2013-01-17 18:36:00,
2013-01-17 13:41:00,40.6,28.6,29.32,WSW,248,1.3,1.3,62,0.05,,---,0.13,VWS V13.01,2013-01-17 18:41:00,
2013-01-17 13:42:00,40.6,28.6,29.32,WSW,248,1.3,1.3,62,0.05,,---,0.13,VWS V13.01,2013-01-17 18:42:00,
2013-01-17 13:46:00,41.0,28.6,29.32,SW,225,3.4,3.4,61,0.05,,---,0.13,VWS V13.01,2013-01-17 18:46:00,
2013-01-17 13:47:00,41.0,28.6,29.32,SW,225,3.4,3.4,61,0.05,,---,0.13,VWS V13.01,2013-01-17 18:47:00,
2013-01-17 13:51:00,40.5,28.1,29.32,SW,225,3.4,3.4,61,0.05,,---,0.13,VWS V13.01,2013-01-17 18:51:00,
2013-01-17 13:52:00,40.5,28.1,29.32,SW,225,3.4,3.4,61,0.05,,---,0.13,VWS V13.01,2013-01-17 18:52:00,
2013-01-17 13:57:00,40.5,28.1,29.32,SW,225,3.4,3.4,61,0.08,,---,0.16,VWS V13.01,2013-01-17 18:57:00,
2013-01-17 13:58:00,40.5,28.1,29.32,SW,225,3.4,3.4,61,0.08,,---,0.16,VWS V13.01,2013-01-17 18:58:00,
2013-01-17 14:02:00,40.5,28.1,29.32,SW,225,3.4,3.4,61,0.08,,---,0.16,VWS V13.01,2013-01-17 19:02:00,
2013-01-17 14:03:00,40.3,28.3,29.32,SW,225,3.4,3.4,62,0.08,,---,0.16,VWS V13.01,2013-01-17 19:03:00,
2013-01-17 14:07:00,40.1,28.1,29.32,SW,225,3.4,3.4,62,0.08,,---,0.16,VWS V13.01,2013-01-17 19:07:00,
2013-01-17 14:08:00,40.1,28.1,29.32,SW,225,3.4,3.4,62,0.03,,---,0.16,VWS V13.01,2013-01-17 19:08:00,
2013-01-17 14:12:00,39.9,27.6,29.32,SW,225,3.4,3.4,61,0.03,,---,0.16,VWS V13.01,2013-01-17 19:12:00,
2013-01-17 14:13:00,39.7,27.4,29.32,SW,225,3.4,3.4,61,0.03,,---,0.16,VWS V13.01,2013-01-17 19:13:00,
2013-01-17 14:17:00,39.7,27.8,29.32,SW,225,3.4,3.4,62,0.03,,---,0.16,VWS V13.01,2013-01-17 19:17:00,
2013-01-17 14:18:00,39.7,27.8,29.32,West,270,1.6,3.4,62,0.03,,---,0.16,VWS V13.01,2013-01-17 19:18:00,
2013-01-17 14:22:00,39.7,27.8,29.32,North,0,0.0,1.6,62,0.03,,---,0.16,VWS V13.01,2013-01-17 19:22:00,
2013-01-17 14:23:00,39.7,27.8,29.32,North,0,0.0,0.0,62,0.03,,---,0.16,VWS V13.01,2013-01-17 19:23:00,
2013-01-17 14:27:00,39.7,27.8,29.32,WSW,248,2.7,2.7,62,0.03,,---,0.16,VWS V13.01,2013-01-17 19:27:00,
2013-01-17 14:28:00,39.7,27.8,29.32,WSW,248,2.7,2.7,62,0.03,,---,0.16,VWS V13.01,2013-01-17 19:28:00,
2013-01-17 14:32:00,39.7,27.8,29.32,WSW,248,2.7,2.7,62,0.03,,---,0.16,VWS V13.01,2013-01-17 19:32:00,
2013-01-17 14:33:00,39.7,27.8,29.32,WSW,248,2.7,2.7,62,0.03,,---,0.16,VWS V13.01,2013-01-17 19:33:00,
2013-01-17 14:37:00,39.9,28.0,29.32,WSW,248,2.7,2.7,62,0.03,,---,0.16,VWS V13.01,2013-01-17 19:37:00,
2013-01-17 14:38:00,39.9,28.0,29.32,WSW,248,2.7,2.7,62,0.03,,---,0.16,VWS V13.01,2013-01-17 19:38:00,
2013-01-17 14:42:00,39.9,28.0,29.32,WSW,248,2.7,2.7,62,0.03,,---,0.16,VWS V13.01,2013-01-17 19:42:00,
2013-01-17 14:43:00,39.9,28.0,29.32,WSW,248,2.7,2.7,62,0.03,,---,0.16,VWS V13.01,2013-01-17 19:43:00,
2013-01-17 14:48:00,39.7,27.8,29.32,WSW,248,2.7,2.7,62,0.03,,---,0.16,VWS V13.01,2013-01-17 19:48:00,
2013-01-17 14:55:00,39.6,27.2,29.32,WSW,248,2.7,2.7,61,0.03,,---,0.16,VWS V13.01,2013-01-17 19:55:00,
2013-01-17 15:00:00,39.4,27.1,29.32,WSW,248,2.7,2.7,61,0.00,,---,0.16,VWS V13.01,2013-01-17 20:00:00,
2013-01-17 15:09:00,39.0,27.5,29.32,WSW,248,2.7,2.7,63,0.00,,---,0.16,VWS V13.01,2013-01-17 20:09:00,
2013-01-17 15:14:00,39.0,27.5,29.32,WSW,248,2.7,2.7,63,0.00,,---,0.16,VWS V13.01,2013-01-17 20:14:00,
2013-01-17 15:15:00,39.0,27.5,29.32,WSW,248,2.7,2.7,63,0.00,,---,0.16,VWS V13.01,2013-01-17 20:15:00,
2013-01-17 15:19:00,38.8,27.3,29.32,WSW,248,2.7,2.7,63,0.05,,---,0.21,VWS V13.01,2013-01-17 20:19:00,
2013-01-17 15:20:00,38.8,27.3,29.32,WSW,248,2.7,2.7,63,0.05,,---,0.21,VWS V13.01,2013-01-17 20:20:00,
2013-01-17 15:24:00,38.8,27.3,29.32,WSW,248,2.7,2.7,63,0.05,,---,0.21,VWS V13.01,2013-01-17 20:24:00,
2013-01-17 15:25:00,38.8,27.3,29.32,WSW,248,2.7,2.7,63,0.05,,---,0.21,VWS V13.01,2013-01-17 20:25:00,
2013-01-17 15:29:00,38.8,27.3,29.32,SSW,202,1.3,1.3,63,0.05,,---,0.21,VWS V13.01,2013-01-17 20:29:00,
2013-01-17 15:30:00,38.7,27.2,29.32,SSW,202,1.3,1.3,63,0.05,,---,0.21,VWS V13.01,2013-01-17 20:30:00,
2013-01-17 15:34:00,38.7,27.2,29.32,SSW,202,1.3,1.3,63,0.05,,---,0.21,VWS V13.01,2013-01-17 20:34:00,
2013-01-17 15:35:00,38.7,27.2,29.32,SSW,202,1.3,1.3,63,0.05,,---,0.21,VWS V13.01,2013-01-17 20:35:00,
2013-01-17 15:40:00,38.7,27.5,29.32,SSW,202,1.3,1.3,64,0.05,,---,0.21,VWS V13.01,2013-01-17 20:40:00,
2013-01-17 15:44:00,38.7,27.5,29.32,SSW,202,1.3,1.3,64,0.05,,---,0.21,VWS V13.01,2013-01-17 20:44:00,
2013-01-17 15:45:00,38.7,27.5,29.32,SSW,202,1.3,1.3,64,0.05,,---,0.21,VWS V13.01,2013-01-17 20:45:00,
2013-01-17 15:50:00,38.7,27.5,29.32,SSW,202,1.3,1.3,64,0.05,,---,0.21,VWS V13.01,2013-01-17 20:50:00,
2013-01-17 15:55:00,38.1,27.0,29.32,SSW,202,1.3,1.3,64,0.05,,---,0.21,VWS V13.01,2013-01-17 20:55:00,
2013-01-17 16:00:00,37.9,26.9,29.32,SSW,202,1.3,1.3,64,0.05,,---,0.21,VWS V13.01,2013-01-17 21:00:00,
2013-01-17 16:05:00,37.9,26.9,29.32,SSW,202,1.3,1.3,64,0.05,,---,0.21,VWS V13.01,2013-01-17 21:05:00,
2013-01-17 16:06:00,37.9,26.9,29.32,SSW,202,1.3,1.3,64,0.05,,---,0.21,VWS V13.01,2013-01-17 21:06:00,
2013-01-17 16:10:00,37.9,26.9,29.32,SSW,202,1.3,1.3,64,0.05,,---,0.21,VWS V13.01,2013-01-17 21:10:00,
2013-01-17 16:11:00,37.9,26.9,29.32,SSW,202,1.3,1.3,64,0.05,,---,0.21,VWS V13.01,2013-01-17 21:11:00,
2013-01-17 16:15:00,37.6,26.5,29.32,SSW,202,1.3,1.3,64,0.05,,---,0.21,VWS V13.01,2013-01-17 21:15:00,
2013-01-17 16:16:00,37.6,26.9,29.32,SSW,202,1.3,1.3,65,0.05,,---,0.21,VWS V13.01,2013-01-17 21:16:00,
2013-01-17 16:20:00,37.6,26.9,29.35,SSW,202,1.3,1.3,65,0.00,,---,0.21,VWS V13.01,2013-01-17 21:20:00,
2013-01-17 16:21:00,37.6,26.9,29.35,SSW,202,1.3,1.3,65,0.00,,---,0.21,VWS V13.01,2013-01-17 21:21:00,
2013-01-17 16:25:00,37.2,27.3,29.35,SSW,202,1.3,1.3,67,0.00,,---,0.21,VWS V13.01,2013-01-17 21:25:00,
2013-01-17 16:26:00,37.2,27.3,29.35,SSW,202,1.3,1.3,67,0.00,,---,0.21,VWS V13.01,2013-01-17 21:26:00,
2013-01-17 16:30:00,37.0,27.5,29.35,SSW,202,1.3,1.3,68,0.00,,---,0.21,VWS V13.01,2013-01-17 21:30:00,
2013-01-17 16:31:00,37.0,27.5,29.35,SSW,202,1.3,1.3,68,0.00,,---,0.21,VWS V13.01,2013-01-17 21:31:00,
2013-01-17 16:35:00,37.0,27.5,29.35,SSE,158,0.0,0.0,68,0.00,,---,0.21,VWS V13.01,2013-01-17 21:35:00,
2013-01-17 16:36:00,37.0,27.5,29.35,SSE,158,0.0,0.0,68,0.00,,---,0.21,VWS V13.01,2013-01-17 21:36:00,
2013-01-17 16:40:00,36.9,27.7,29.35,SSE,158,0.0,0.0,69,0.00,,---,0.21,VWS V13.01,2013-01-17 21:40:00,
2013-01-17 16:41:00,36.9,27.7,29.35,SSE,158,0.0,0.0,69,0.00,,---,0.21,VWS V13.01,2013-01-17 21:41:00,
2013-01-17 16:46:00,36.9,27.7,29.35,SSE,158,0.0,0.0,69,0.00,,---,0.21,VWS V13.01,2013-01-17 21:46:00,
2013-01-17 16:51:00,36.9,27.7,29.35,SSE,158,0.0,0.0,69,0.00,,---,0.21,VWS V13.01,2013-01-17 21:51:00,
2013-01-17 16:52:00,36.9,27.7,29.35,SSE,158,0.0,0.0,69,0.00,,---,0.21,VWS V13.01,2013-01-17 21:52:00,
2013-01-17 16:56:00,36.9,27.7,29.35,SSE,158,0.0,0.0,69,0.00,,---,0.21,VWS V13.01,2013-01-17 21:56:00,
2013-01-17 16:57:00,36.9,27.7,29.35,SSE,158,0.0,0.0,69,0.00,,---,0.21,VWS V13.01,2013-01-17 21:57:00,
2013-01-17 17:01:00,36.9,27.7,29.35,SSE,158,0.0,0.0,69,0.00,,---,0.21,VWS V13.01,2013-01-17 22:01:00,
2013-01-17 17:02:00,36.3,27.8,29.35,SSE,158,0.0,0.0,71,0.00,,---,0.21,VWS V13.01,2013-01-17 22:02:00,
2013-01-17 17:06:00,36.3,27.8,29.35,SSE,158,0.0,0.0,71,0.00,,---,0.21,VWS V13.01,2013-01-17 22:06:00,
2013-01-17 17:07:00,36.0,27.8,29.35,SSE,158,0.0,0.0,72,0.00,,---,0.21,VWS V13.01,2013-01-17 22:07:00,
2013-01-17 17:11:00,36.0,27.8,29.35,SSE,158,0.0,0.0,72,0.00,,---,0.21,VWS V13.01,2013-01-17 22:11:00,
2013-01-17 17:12:00,36.0,27.8,29.35,SSE,158,0.0,0.0,72,0.00,,---,0.21,VWS V13.01,2013-01-17 22:12:00,
2013-01-17 17:13:00,36.0,27.8,29.35,SSE,158,0.0,0.0,72,0.00,,---,0.21,VWS V13.01,2013-01-17 22:13:00,
2013-01-17 17:16:00,36.0,27.8,29.35,SSE,158,0.0,0.0,72,0.00,,---,0.21,VWS V13.01,2013-01-17 22:16:00,
2013-01-17 17:17:00,36.0,27.8,29.35,SSE,158,0.0,0.0,72,0.00,,---,0.21,VWS V13.01,2013-01-17 22:17:00,
2013-01-17 17:18:00,36.0,27.8,29.35,SSE,158,0.0,0.0,72,0.00,,---,0.21,VWS V13.01,2013-01-17 22:18:00,
2013-01-17 17:22:00,36.0,27.8,29.35,SE,135,0.0,0.0,72,0.00,,---,0.21,VWS V13.01,2013-01-17 22:22:00,
2013-01-17 17:23:00,36.0,27.8,29.35,SE,135,0.0,0.0,72,0.00,,---,0.21,VWS V13.01,2013-01-17 22:23:00,
2013-01-17 17:27:00,35.6,28.5,29.35,SE,135,0.0,0.0,75,0.00,,---,0.21,VWS V13.01,2013-01-17 22:27:00,
2013-01-17 17:28:00,35.6,28.5,29.35,SE,135,0.0,0.0,75,0.00,,---,0.21,VWS V13.01,2013-01-17 22:28:00,
2013-01-17 17:32:00,35.4,28.3,29.35,SE,135,0.0,0.0,75,0.00,,---,0.21,VWS V13.01,2013-01-17 22:32:00,
2013-01-17 17:33:00,35.4,28.3,29.35,SE,135,0.0,0.0,75,0.00,,---,0.21,VWS V13.01,2013-01-17 22:33:00,
2013-01-17 17:35:00,35.4,28.6,29.35,SE,135,0.0,0.0,76,0.00,,---,0.21,VWS V13.01,2013-01-17 22:35:00,
2013-01-17 17:37:00,35.4,28.3,29.35,SE,135,0.0,0.0,75,0.00,,---,0.21,VWS V13.01,2013-01-17 22:37:00,
2013-01-17 17:38:00,35.4,28.3,29.35,SE,135,0.0,0.0,75,0.00,,---,0.21,VWS V13.01,2013-01-17 22:38:00,
2013-01-17 17:40:00,35.4,28.3,29.35,SE,135,0.0,0.0,75,0.00,,---,0.21,VWS V13.01,2013-01-17 22:40:00,
2013-01-17 17:42:00,35.4,28.3,29.35,SE,135,0.0,0.0,75,0.00,,---,0.21,VWS V13.01,2013-01-17 22:42:00,
2013-01-17 17:43:00,35.4,28.3,29.35,SE,135,0.0,0.0,75,0.00,,---,0.21,VWS V13.01,2013-01-17 22:43:00,
2013-01-17 17:46:00,35.4,28.3,29.35,SE,135,0.0,0.0,75,0.00,,---,0.21,VWS V13.01,2013-01-17 22:46:00,
2013-01-17 17:47:00,35.4,28.3,29.35,SE,135,0.0,0.0,75,0.00,,---,0.21,VWS V13.01,2013-01-17 22:47:00,
2013-01-17 17:48:00,35.4,28.3,29.38,SE,135,0.0,0.0,75,0.00,,---,0.21,VWS V13.01,2013-01-17 22:48:00,
2013-01-17 17:51:00,35.4,28.3,29.38,SE,135,0.0,0.0,75,0.00,,---,0.21,VWS V13.01,2013-01-17 22:51:00,
2013-01-17 17:52:00,35.4,28.3,29.38,SE,135,0.0,0.0,75,0.00,,---,0.21,VWS V13.01,2013-01-17 22:52:00,
2013-01-17 17:53:00,35.4,28.3,29.38,SE,135,0.0,0.0,75,0.00,,---,0.21,VWS V13.01,2013-01-17 22:53:00,
2013-01-17 17:56:00,35.1,28.6,29.38,SE,135,0.0,0.0,77,0.00,,---,0.21,VWS V13.01,2013-01-17 22:56:00,
2013-01-17 17:57:00,35.1,28.6,29.38,SE,135,0.0,0.0,77,0.00,,---,0.21,VWS V13.01,2013-01-17 22:57:00,
2013-01-17 17:58:00,35.1,28.6,29.38,SE,135,0.0,0.0,77,0.00,,---,0.21,VWS V13.01,2013-01-17 22:58:00,
2013-01-17 17:59:00,35.1,28.6,29.38,SE,135,0.0,0.0,77,0.00,,---,0.21,VWS V13.01,2013-01-17 22:59:00,
2013-01-17 18:01:00,34.9,28.4,29.38,SE,135,0.0,0.0,77,0.00,,---,0.21,VWS V13.01,2013-01-17 23:01:00,
2013-01-17 18:02:00,34.9,28.4,29.38,SE,135,0.0,0.0,77,0.00,,---,0.21,VWS V13.01,2013-01-17 23:02:00,
2013-01-17 18:03:00,34.9,28.4,29.38,SE,135,0.0,0.0,77,0.00,,---,0.21,VWS V13.01,2013-01-17 23:03:00,
2013-01-17 18:04:00,34.9,28.4,29.38,SE,135,0.0,0.0,77,0.00,,---,0.21,VWS V13.01,2013-01-17 23:04:00,
2013-01-17 18:06:00,34.9,28.4,29.38,ENE,68,0.0,0.0,77,0.00,,---,0.21,VWS V13.01,2013-01-17 23:06:00,
2013-01-17 18:08:00,34.9,28.4,29.38,ENE,68,0.0,0.0,77,0.00,,---,0.21,VWS V13.01,2013-01-17 23:08:00,
2013-01-17 18:11:00,34.9,28.4,29.35,ENE,68,0.0,0.0,77,0.00,,---,0.21,VWS V13.01,2013-01-17 23:11:00,
2013-01-17 18:12:00,34.9,28.4,29.35,ENE,68,0.0,0.0,77,0.00,,---,0.21,VWS V13.01,2013-01-17 23:12:00,
2013-01-17 18:13:00,34.9,28.4,29.35,ENE,68,0.0,0.0,77,0.00,,---,0.21,VWS V13.01,2013-01-17 23:13:00,
2013-01-17 18:17:00,34.9,28.4,29.35,ENE,68,0.0,0.0,77,0.00,,---,0.21,VWS V13.01,2013-01-17 23:17:00,
2013-01-17 18:18:00,34.9,28.1,29.35,ENE,68,0.0,0.0,76,0.00,,---,0.21,VWS V13.01,2013-01-17 23:18:00,
2013-01-17 18:22:00,34.9,27.8,29.35,ENE,68,0.0,0.0,75,0.00,,---,0.21,VWS V13.01,2013-01-17 23:22:00,
2013-01-17 18:23:00,35.1,28.0,29.35,ENE,68,0.0,0.0,75,0.00,,---,0.21,VWS V13.01,2013-01-17 23:23:00,
2013-01-17 18:24:00,35.1,28.0,29.35,ENE,68,0.0,0.0,75,0.00,,---,0.21,VWS V13.01,2013-01-17 23:24:00,
2013-01-17 18:27:00,35.1,27.6,29.35,ENE,68,0.0,0.0,74,0.00,,---,0.21,VWS V13.01,2013-01-17 23:27:00,
2013-01-17 18:29:00,35.1,27.6,29.35,ENE,68,0.0,0.0,74,0.00,,---,0.21,VWS V13.01,2013-01-17 23:29:00,
2013-01-17 18:32:00,35.1,27.3,29.35,ENE,68,0.0,0.0,73,0.00,,---,0.21,VWS V13.01,2013-01-17 23:32:00,
2013-01-17 18:34:00,35.1,27.3,29.38,ENE,68,0.0,0.0,73,0.00,,---,0.21,VWS V13.01,2013-01-17 23:34:00,
2013-01-17 18:37:00,35.1,27.0,29.38,ENE,68,0.0,0.0,72,0.00,,---,0.21,VWS V13.01,2013-01-17 23:37:00,
2013-01-17 18:39:00,35.1,26.6,29.38,ENE,68,0.0,0.0,71,0.00,,---,0.21,VWS V13.01,2013-01-17 23:39:00,
2013-01-17 18:40:00,35.1,26.6,29.38,ENE,68,0.0,0.0,71,0.00,,---,0.21,VWS V13.01,2013-01-17 23:40:00,
2013-01-17 18:42:00,35.1,26.6,29.38,ENE,68,0.0,0.0,71,0.00,,---,0.21,VWS V13.01,2013-01-17 23:42:00,
2013-01-17 18:44:00,35.1,26.6,29.38,ENE,68,0.0,0.0,71,0.00,,---,0.21,VWS V13.01,2013-01-17 23:44:00,
2013-01-17 18:45:00,35.1,26.6,29.38,ENE,68,0.0,0.0,71,0.00,,---,0.21,VWS V13.01,2013-01-17 23:45:00,
2013-01-17 18:47:00,34.9,26.5,29.38,ENE,68,0.0,0.0,71,0.00,,---,0.21,VWS V13.01,2013-01-17 23:47:00,
2013-01-17 18:48:00,34.9,26.5,29.38,ENE,68,0.0,0.0,71,0.00,,---,0.21,VWS V13.01,2013-01-17 23:48:00,
2013-01-17 18:49:00,34.9,26.5,29.38,ENE,68,0.0,0.0,71,0.00,,---,0.21,VWS V13.01,2013-01-17 23:49:00,
2013-01-17 18:50:00,34.9,26.1,29.38,ENE,68,0.0,0.0,70,0.00,,---,0.21,VWS V13.01,2013-01-17 23:50:00,
2013-01-17 18:53:00,34.9,26.1,29.38,ENE,68,0.0,0.0,70,0.00,,---,0.21,VWS V13.01,2013-01-17 23:53:00,
2013-01-17 18:56:00,34.7,25.9,29.38,ENE,68,0.0,0.0,70,0.00,,---,0.21,VWS V13.01,2013-01-17 23:56:00,
2013-01-17 19:01:00,34.5,25.8,29.38,ENE,68,0.0,0.0,70,0.00,,---,0.21,VWS V13.01,2013-01-18 00:01:00,
2013-01-17 19:02:00,34.5,25.8,29.38,ENE,68,0.0,0.0,70,0.00,,---,0.21,VWS V13.01,2013-01-18 00:02:00,
2013-01-17 19:04:00,34.5,25.8,29.38,ENE,68,0.0,0.0,70,0.00,,---,0.21,VWS V13.01,2013-01-18 00:04:00,
2013-01-17 19:06:00,34.5,25.8,29.38,ENE,68,0.0,0.0,70,0.00,,---,0.21,VWS V13.01,2013-01-18 00:06:00,
2013-01-17 19:07:00,34.5,25.8,29.38,ENE,68,0.0,0.0,70,0.00,,---,0.21,VWS V13.01,2013-01-18 00:07:00,
2013-01-17 19:10:00,34.5,25.8,29.38,ENE,68,0.0,0.0,70,0.00,,---,0.21,VWS V13.01,2013-01-18 00:10:00,
2013-01-17 19:12:00,34.5,25.8,29.38,ENE,68,0.0,0.0,70,0.00,,---,0.21,VWS V13.01,2013-01-18 00:12:00,
2013-01-17 19:13:00,34.3,25.6,29.38,ENE,68,0.0,0.0,70,0.00,,---,0.21,VWS V13.01,2013-01-18 00:13:00,
2013-01-17 19:14:00,34.3,25.6,29.38,ENE,68,0.0,0.0,70,0.00,,---,0.21,VWS V13.01,2013-01-18 00:14:00,
2013-01-17 19:15:00,34.3,25.6,29.38,ENE,68,0.0,0.0,70,0.00,,---,0.21,VWS V13.01,2013-01-18 00:15:00,
2013-01-17 19:18:00,34.3,25.6,29.38,ENE,68,0.0,0.0,70,0.00,,---,0.21,VWS V13.01,2013-01-18 00:18:00,
2013-01-17 19:19:00,34.3,25.6,29.38,ENE,68,0.0,0.0,70,0.00,,---,0.21,VWS V13.01,2013-01-18 00:19:00,
2013-01-17 19:20:00,34.3,25.6,29.38,ENE,68,0.0,0.0,70,0.00,,---,0.21,VWS V13.01,2013-01-18 00:20:00,
2013-01-17 19:23:00,34.3,25.6,29.38,ESE,112,1.1,1.1,70,0.00,,---,0.21,VWS V13.01,2013-01-18 00:23:00,
2013-01-17 19:24:00,34.3,25.6,29.38,ESE,112,1.1,1.1,70,0.00,,---,0.21,VWS V13.01,2013-01-18 00:24:00,
2013-01-17 19:25:00,34.3,25.6,29.38,ESE,112,1.1,1.1,70,0.00,,---,0.21,VWS V13.01,2013-01-18 00:25:00,
2013-01-17 19:28:00,34.3,25.6,29.38,ESE,112,1.1,1.1,70,0.00,,---,0.21,VWS V13.01,2013-01-18 00:28:00,
2013-01-17 19:29:00,34.3,25.6,29.38,ESE,112,1.1,1.1,70,0.00,,---,0.21,VWS V13.01,2013-01-18 00:29:00,
2013-01-17 19:31:00,34.3,25.6,29.38,ESE,112,1.1,1.1,70,0.00,,---,0.21,VWS V13.01,2013-01-18 00:31:00,
2013-01-17 19:33:00,34.3,25.6,29.38,ESE,112,1.1,1.1,70,0.00,,---,0.21,VWS V13.01,2013-01-18 00:33:00,
2013-01-17 19:34:00,34.3,25.6,29.38,ESE,112,1.1,1.1,70,0.00,,---,0.21,VWS V13.01,2013-01-18 00:34:00,
2013-01-17 19:36:00,34.3,25.6,29.38,NE,45,0.0,0.0,70,0.00,,---,0.21,VWS V13.01,2013-01-18 00:36:00,
2013-01-17 19:38:00,34.3,25.6,29.38,NE,45,0.0,0.0,70,0.00,,---,0.21,VWS V13.01,2013-01-18 00:38:00,
2013-01-17 19:39:00,34.3,25.6,29.38,NE,45,0.0,0.0,70,0.00,,---,0.21,VWS V13.01,2013-01-18 00:39:00,
2013-01-17 19:41:00,33.8,24.4,29.38,NE,45,0.0,0.0,68,0.00,,---,0.21,VWS V13.01,2013-01-18 00:41:00,
2013-01-17 19:43:00,33.8,24.4,29.38,NE,45,0.0,0.0,68,0.00,,---,0.21,VWS V13.01,2013-01-18 00:43:00,
2013-01-17 19:44:00,33.8,24.4,29.38,NE,45,0.0,0.0,68,0.00,,---,0.21,VWS V13.01,2013-01-18 00:44:00,
2013-01-17 19:46:00,33.8,24.4,29.38,NE,45,0.0,0.0,68,0.00,,---,0.21,VWS V13.01,2013-01-18 00:46:00,
2013-01-17 19:49:00,33.8,24.4,29.35,NE,45,0.0,0.0,68,0.00,,---,0.21,VWS V13.01,2013-01-18 00:49:00,
2013-01-17 19:51:00,33.6,24.2,29.35,NE,45,0.0,0.0,68,0.00,,---,0.21,VWS V13.01,2013-01-18 00:51:00,
2013-01-17 19:54:00,33.6,24.2,29.35,NE,45,0.0,0.0,68,0.00,,---,0.21,VWS V13.01,2013-01-18 00:54:00,
2013-01-17 19:55:00,33.6,23.9,29.35,NE,45,0.0,0.0,67,0.00,,---,0.21,VWS V13.01,2013-01-18 00:55:00,
2013-01-17 19:56:00,33.6,23.9,29.35,NE,45,0.0,0.0,67,0.00,,---,0.21,VWS V13.01,2013-01-18 00:56:00,
2013-01-17 19:59:00,33.4,23.7,29.35,NE,45,0.0,0.0,67,0.00,,---,0.21,VWS V13.01,2013-01-18 00:59:00,
2013-01-17 20:00:00,33.4,23.7,29.35,NE,45,0.0,0.0,67,0.00,,---,0.21,VWS V13.01,2013-01-18 01:00:00,
2013-01-17 20:01:00,33.4,23.7,29.35,NE,45,0.0,0.0,67,0.00,,---,0.21,VWS V13.01,2013-01-18 01:01:00,
2013-01-17 20:04:00,33.3,23.1,29.35,NE,45,0.0,0.0,66,0.00,,---,0.21,VWS V13.01,2013-01-18 01:04:00,
2013-01-17 20:05:00,33.3,23.1,29.35,NE,45,0.0,0.0,66,0.00,,---,0.21,VWS V13.01,2013-01-18 01:05:00,
2013-01-17 20:06:00,33.1,22.6,29.35,NE,45,0.0,0.0,65,0.00,,---,0.21,VWS V13.01,2013-01-18 01:06:00,
2013-01-17 20:09:00,33.1,22.6,29.35,NE,45,0.0,0.0,65,0.00,,---,0.21,VWS V13.01,2013-01-18 01:09:00,
2013-01-17 20:10:00,33.1,22.6,29.35,NE,45,0.0,0.0,65,0.00,,---,0.21,VWS V13.01,2013-01-18 01:10:00,
2013-01-17 20:11:00,32.9,22.4,29.35,NE,45,0.0,0.0,65,0.00,,---,0.21,VWS V13.01,2013-01-18 01:11:00,
2013-01-17 20:14:00,32.9,22.4,29.35,NE,45,0.0,0.0,65,0.00,,---,0.21,VWS V13.01,2013-01-18 01:14:00,
2013-01-17 20:19:00,32.7,21.9,29.38,NE,45,0.0,0.0,64,0.00,,---,0.21,VWS V13.01,2013-01-18 01:19:00,
2013-01-17 20:20:00,32.7,21.9,29.38,NE,45,0.0,0.0,64,0.00,,---,0.21,VWS V13.01,2013-01-18 01:20:00,
2013-01-17 20:25:00,32.5,21.4,29.38,NE,45,0.0,0.0,63,0.00,,---,0.21,VWS V13.01,2013-01-18 01:25:00,
2013-01-17 20:27:00,32.4,20.8,29.38,NE,45,0.0,0.0,62,0.00,,---,0.21,VWS V13.01,2013-01-18 01:27:00,
2013-01-17 20:30:00,32.4,21.2,29.38,NE,45,0.0,0.0,63,0.00,,---,0.21,VWS V13.01,2013-01-18 01:30:00,
2013-01-17 20:32:00,32.4,21.2,29.38,NE,45,0.0,0.0,63,0.00,,---,0.21,VWS V13.01,2013-01-18 01:32:00,
2013-01-17 20:33:00,32.4,21.2,29.38,NE,45,0.0,0.0,63,0.00,,---,0.21,VWS V13.01,2013-01-18 01:33:00,
2013-01-17 20:35:00,32.4,21.2,29.35,NE,45,0.0,0.0,63,0.00,,---,0.21,VWS V13.01,2013-01-18 01:35:00,
2013-01-17 20:37:00,32.4,20.8,29.35,NE,45,0.0,0.0,62,0.00,,---,0.21,VWS V13.01,2013-01-18 01:37:00,
2013-01-17 20:38:00,32.4,20.8,29.35,NE,45,0.0,0.0,62,0.00,,---,0.21,VWS V13.01,2013-01-18 01:38:00,
2013-01-17 20:40:00,32.2,20.6,29.35,NE,45,0.0,0.0,62,0.00,,---,0.21,VWS V13.01,2013-01-18 01:40:00,
2013-01-17 20:42:00,32.2,20.6,29.35,NE,45,0.0,0.0,62,0.00,,---,0.21,VWS V13.01,2013-01-18 01:42:00,
2013-01-17 20:43:00,32.2,20.6,29.35,NE,45,0.0,0.0,62,0.00,,---,0.21,VWS V13.01,2013-01-18 01:43:00,
2013-01-17 20:45:00,32.2,20.6,29.35,NE,45,0.0,0.0,62,0.00,,---,0.21,VWS V13.01,2013-01-18 01:45:00,
2013-01-17 20:46:00,32.2,20.6,29.35,NE,45,0.0,0.0,62,0.00,,---,0.21,VWS V13.01,2013-01-18 01:46:00,
2013-01-17 20:48:00,32.2,20.6,29.35,NE,45,0.0,0.0,62,0.00,,---,0.21,VWS V13.01,2013-01-18 01:48:00,
2013-01-17 20:49:00,32.2,20.6,29.35,NE,45,0.0,0.0,62,0.00,,---,0.21,VWS V13.01,2013-01-18 01:49:00,
2013-01-17 20:51:00,32.0,20.5,29.35,NE,45,0.0,0.0,62,0.00,,---,0.21,VWS V13.01,2013-01-18 01:51:00,
2013-01-17 20:53:00,32.0,20.5,29.35,NE,45,0.0,0.0,62,0.00,,---,0.21,VWS V13.01,2013-01-18 01:53:00,
2013-01-17 20:54:00,32.0,20.1,29.35,NE,45,0.0,0.0,61,0.00,,---,0.21,VWS V13.01,2013-01-18 01:54:00,
2013-01-17 20:56:00,32.0,20.1,29.35,NE,45,0.0,0.0,61,0.00,,---,0.21,VWS V13.01,2013-01-18 01:56:00,
2013-01-17 20:58:00,31.8,19.9,29.35,NE,45,0.0,0.0,61,0.00,,---,0.21,VWS V13.01,2013-01-18 01:58:00,
2013-01-17 20:59:00,31.8,20.3,29.35,NE,45,0.0,0.0,62,0.00,,---,0.21,VWS V13.01,2013-01-18 01:59:00,
2013-01-17 21:01:00,31.8,20.3,29.35,NE,45,0.0,0.0,62,0.00,,---,0.21,VWS V13.01,2013-01-18 02:01:00,
2013-01-17 21:03:00,31.8,19.9,29.35,NE,45,0.0,0.0,61,0.00,,---,0.21,VWS V13.01,2013-01-18 02:03:00,
2013-01-17 21:04:00,31.8,19.9,29.35,NE,45,0.0,0.0,61,0.00,,---,0.21,VWS V13.01,2013-01-18 02:04:00,
2013-01-17 21:05:00,31.6,20.1,29.35,NE,45,0.0,0.0,62,0.00,,---,0.21,VWS V13.01,2013-01-18 02:05:00,
2013-01-17 21:06:00,31.6,20.1,29.35,NE,45,0.0,0.0,62,0.00,,---,0.21,VWS V13.01,2013-01-18 02:06:00,
2013-01-17 21:09:00,31.6,20.1,29.35,NE,45,0.0,0.0,62,0.00,,---,0.21,VWS V13.01,2013-01-18 02:09:00,
2013-01-17 21:10:00,31.6,20.1,29.35,NE,45,0.0,0.0,62,0.00,,---,0.21,VWS V13.01,2013-01-18 02:10:00,
2013-01-17 21:11:00,31.6,20.1,29.35,NE,45,0.0,0.0,62,0.00,,---,0.21,VWS V13.01,2013-01-18 02:11:00,
2013-01-17 21:14:00,31.6,19.8,29.35,NE,45,0.0,0.0,61,0.00,,---,0.21,VWS V13.01,2013-01-18 02:14:00,
2013-01-17 21:15:00,31.6,20.1,29.35,NE,45,0.0,0.0,62,0.00,,---,0.21,VWS V13.01,2013-01-18 02:15:00,
2013-01-17 21:16:00,31.5,20.0,29.35,NE,45,0.0,0.0,62,0.00,,---,0.21,VWS V13.01,2013-01-18 02:16:00,
2013-01-17 21:19:00,31.5,20.0,29.35,NE,45,0.0,0.0,62,0.00,,---,0.21,VWS V13.01,2013-01-18 02:19:00,
2013-01-17 21:20:00,31.5,20.0,29.35,NE,45,0.0,0.0,62,0.00,,---,0.21,VWS V13.01,2013-01-18 02:20:00,
2013-01-17 21:21:00,31.5,20.0,29.35,NE,45,0.0,0.0,62,0.00,,---,0.21,VWS V13.01,2013-01-18 02:21:00,
2013-01-17 21:22:00,31.5,20.0,29.35,NE,45,0.0,0.0,62,0.00,,---,0.21,VWS V13.01,2013-01-18 02:22:00,
2013-01-17 21:24:00,31.5,19.6,29.35,NE,45,0.0,0.0,61,0.00,,---,0.21,VWS V13.01,2013-01-18 02:24:00,
2013-01-17 21:25:00,31.3,19.4,29.35,NE,45,0.0,0.0,61,0.00,,---,0.21,VWS V13.01,2013-01-18 02:25:00,
2013-01-17 21:26:00,31.3,19.4,29.35,NE,45,0.0,0.0,61,0.00,,---,0.21,VWS V13.01,2013-01-18 02:26:00,
2013-01-17 21:27:00,31.3,19.4,29.35,NE,45,0.0,0.0,61,0.00,,---,0.21,VWS V13.01,2013-01-18 02:27:00,
2013-01-17 21:29:00,31.3,19.8,29.35,NE,45,0.0,0.0,62,0.00,,---,0.21,VWS V13.01,2013-01-18 02:29:00,
2013-01-17 21:31:00,31.3,19.8,29.35,NE,45,0.0,0.0,62,0.00,,---,0.21,VWS V13.01,2013-01-18 02:31:00,
2013-01-17 21:32:00,31.3,19.8,29.35,NE,45,0.0,0.0,62,0.00,,---,0.21,VWS V13.01,2013-01-18 02:32:00,
2013-01-17 21:36:00,31.3,19.8,29.35,NE,45,0.0,0.0,62,0.00,,---,0.21,VWS V13.01,2013-01-18 02:36:00,
2013-01-17 21:37:00,31.3,20.2,29.35,NE,45,0.0,0.0,63,0.00,,---,0.21,VWS V13.01,2013-01-18 02:37:00,
2013-01-17 21:41:00,31.1,19.2,29.35,NE,45,0.0,0.0,61,0.00,,---,0.21,VWS V13.01,2013-01-18 02:41:00,
2013-01-17 21:42:00,31.1,19.2,29.35,NE,45,0.0,0.0,61,0.00,,---,0.21,VWS V13.01,2013-01-18 02:42:00,
2013-01-17 21:46:00,31.1,19.6,29.35,NE,45,0.0,0.0,62,0.00,,---,0.21,VWS V13.01,2013-01-18 02:46:00,
2013-01-17 21:47:00,31.1,19.6,29.35,NE,45,0.0,0.0,62,0.00,,---,0.21,VWS V13.01,2013-01-18 02:47:00,
2013-01-17 21:51:00,30.9,19.5,29.35,NE,45,0.0,0.0,62,0.00,,---,0.21,VWS V13.01,2013-01-18 02:51:00,
2013-01-17 21:52:00,30.9,19.5,29.35,NE,45,0.0,0.0,62,0.00,,---,0.21,VWS V13.01,2013-01-18 02:52:00,
2013-01-17 21:56:00,30.9,19.5,29.35,NE,45,0.0,0.0,62,0.00,,---,0.21,VWS V13.01,2013-01-18 02:56:00,
2013-01-17 21:57:00,30.9,19.5,29.35,NE,45,0.0,0.0,62,0.00,,---,0.21,VWS V13.01,2013-01-18 02:57:00,
2013-01-17 22:01:00,30.9,19.5,29.35,NE,45,0.0,0.0,62,0.00,,---,0.21,VWS V13.01,2013-01-18 03:01:00,
2013-01-17 22:03:00,30.9,19.5,29.35,NE,45,0.0,0.0,62,0.00,,---,0.21,VWS V13.01,2013-01-18 03:03:00,
2013-01-17 22:04:00,30.9,19.5,29.35,NE,45,0.0,0.0,62,0.00,,---,0.21,VWS V13.01,2013-01-18 03:04:00,
2013-01-17 22:06:00,30.7,19.3,29.35,NE,45,0.0,0.0,62,0.00,,---,0.21,VWS V13.01,2013-01-18 03:06:00,
2013-01-17 22:08:00,30.7,19.3,29.35,NE,45,0.0,0.0,62,0.00,,---,0.21,VWS V13.01,2013-01-18 03:08:00,
2013-01-17 22:09:00,30.7,18.9,29.35,NE,45,0.0,0.0,61,0.00,,---,0.21,VWS V13.01,2013-01-18 03:09:00,
2013-01-17 22:11:00,30.7,18.9,29.35,NE,45,0.0,0.0,61,0.00,,---,0.21,VWS V13.01,2013-01-18 03:11:00,
2013-01-17 22:13:00,30.7,19.3,29.35,NE,45,0.0,0.0,62,0.00,,---,0.21,VWS V13.01,2013-01-18 03:13:00,
2013-01-17 22:14:00,30.7,19.3,29.35,NE,45,0.0,0.0,62,0.00,,---,0.21,VWS V13.01,2013-01-18 03:14:00,
2013-01-17 22:17:00,30.7,18.9,29.35,NE,45,0.0,0.0,61,0.00,,---,0.21,VWS V13.01,2013-01-18 03:17:00,
2013-01-17 22:18:00,30.6,18.7,29.35,NE,45,0.0,0.0,61,0.00,,---,0.21,VWS V13.01,2013-01-18 03:18:00,
2013-01-17 22:19:00,30.6,18.7,29.35,NE,45,0.0,0.0,61,0.00,,---,0.21,VWS V13.01,2013-01-18 03:19:00,
2013-01-17 22:22:00,30.6,18.7,29.32,NE,45,0.0,0.0,61,0.00,,---,0.21,VWS V13.01,2013-01-18 03:22:00,
2013-01-17 22:24:00,30.6,18.7,29.32,NE,45,0.0,0.0,61,0.00,,---,0.21,VWS V13.01,2013-01-18 03:24:00,
2013-01-17 22:27:00,30.6,19.1,29.32,NE,45,0.0,0.0,62,0.00,,---,0.21,VWS V13.01,2013-01-18 03:27:00,
2013-01-17 22:29:00,30.6,19.1,29.32,NE,45,0.0,0.0,62,0.00,,---,0.21,VWS V13.01,2013-01-18 03:29:00,
2013-01-17 22:30:00,30.6,19.1,29.32,NE,45,0.0,0.0,62,0.00,,---,0.21,VWS V13.01,2013-01-18 03:30:00,
2013-01-17 22:32:00,30.4,18.6,29.32,NE,45,0.0,0.0,61,0.00,,---,0.21,VWS V13.01,2013-01-18 03:32:00,
2013-01-17 22:34:00,30.4,18.6,29.32,NE,45,0.0,0.0,61,0.00,,---,0.21,VWS V13.01,2013-01-18 03:34:00,
2013-01-17 22:35:00,30.4,18.6,29.32,NE,45,0.0,0.0,61,0.00,,---,0.21,VWS V13.01,2013-01-18 03:35:00,
2013-01-17 22:37:00,30.4,18.6,29.32,NE,45,0.0,0.0,61,0.00,,---,0.21,VWS V13.01,2013-01-18 03:37:00,
2013-01-17 22:39:00,30.4,18.6,29.32,NE,45,0.0,0.0,61,0.00,,---,0.21,VWS V13.01,2013-01-18 03:39:00,
2013-01-17 22:40:00,30.4,18.6,29.32,NE,45,0.0,0.0,61,0.00,,---,0.21,VWS V13.01,2013-01-18 03:40:00,
2013-01-17 22:42:00,30.4,18.6,29.32,NE,45,0.0,0.0,61,0.00,,---,0.21,VWS V13.01,2013-01-18 03:42:00,
2013-01-17 22:44:00,30.2,18.0,29.32,NE,45,0.0,0.0,60,0.00,,---,0.21,VWS V13.01,2013-01-18 03:44:00,
2013-01-17 22:45:00,30.2,18.0,29.32,NE,45,0.0,0.0,60,0.00,,---,0.21,VWS V13.01,2013-01-18 03:45:00,
2013-01-17 22:47:00,30.2,18.4,29.32,NE,45,0.0,0.0,61,0.00,,---,0.21,VWS V13.01,2013-01-18 03:47:00,
2013-01-17 22:49:00,30.2,18.4,29.32,NE,45,0.0,0.0,61,0.00,,---,0.21,VWS V13.01,2013-01-18 03:49:00,
2013-01-17 22:50:00,30.2,18.4,29.32,NE,45,0.0,0.0,61,0.00,,---,0.21,VWS V13.01,2013-01-18 03:50:00,
2013-01-17 22:52:00,30.2,18.4,29.32,NE,45,0.0,0.0,61,0.00,,---,0.21,VWS V13.01,2013-01-18 03:52:00,
2013-01-17 22:54:00,30.2,18.4,29.32,NE,45,0.0,0.0,61,0.00,,---,0.21,VWS V13.01,2013-01-18 03:54:00,
2013-01-17 22:55:00,30.2,18.4,29.32,NE,45,0.0,0.0,61,0.00,,---,0.21,VWS V13.01,2013-01-18 03:55:00,
2013-01-17 22:57:00,30.2,18.4,29.32,NE,45,0.0,0.0,61,0.00,,---,0.21,VWS V13.01,2013-01-18 03:57:00,
2013-01-17 22:59:00,29.8,17.7,29.32,NE,45,0.0,0.0,60,0.00,,---,0.21,VWS V13.01,2013-01-18 03:59:00,
2013-01-17 23:00:00,29.8,18.0,29.32,NE,45,0.0,0.0,61,0.00,,---,0.21,VWS V13.01,2013-01-18 04:00:00,
2013-01-17 23:02:00,29.8,18.0,29.32,NE,45,0.0,0.0,61,0.00,,---,0.21,VWS V13.01,2013-01-18 04:02:00,
2013-01-17 23:04:00,29.8,18.0,29.32,NE,45,0.0,0.0,61,0.00,,---,0.21,VWS V13.01,2013-01-18 04:04:00,
2013-01-17 23:05:00,29.8,18.0,29.32,NE,45,0.0,0.0,61,0.00,,---,0.21,VWS V13.01,2013-01-18 04:05:00,
2013-01-17 23:07:00,29.7,17.9,29.32,NE,45,0.0,0.0,61,0.00,,---,0.21,VWS V13.01,2013-01-18 04:07:00,
2013-01-17 23:10:00,29.7,17.9,29.29,NE,45,0.0,0.0,61,0.00,,---,0.21,VWS V13.01,2013-01-18 04:10:00,
2013-01-17 23:13:00,29.5,17.7,29.29,NE,45,0.0,0.0,61,0.00,,---,0.21,VWS V13.01,2013-01-18 04:13:00,
2013-01-17 23:15:00,29.5,17.7,29.29,NE,45,0.0,0.0,61,0.00,,---,0.21,VWS V13.01,2013-01-18 04:15:00,
2013-01-17 23:18:00,29.3,17.5,29.29,NE,45,0.0,0.0,61,0.00,,---,0.21,VWS V13.01,2013-01-18 04:18:00,
2013-01-17 23:20:00,29.3,17.5,29.29,NE,45,0.0,0.0,61,0.00,,---,0.21,VWS V13.01,2013-01-18 04:20:00,
2013-01-17 23:23:00,29.1,17.4,29.29,NE,45,0.0,0.0,61,0.00,,---,0.21,VWS V13.01,2013-01-18 04:23:00,
2013-01-17 23:25:00,29.3,17.5,29.29,NE,45,0.0,0.0,61,0.00,,---,0.21,VWS V13.01,2013-01-18 04:25:00,
2013-01-17 23:28:00,29.3,17.9,29.32,NE,45,0.0,0.0,62,0.00,,---,0.21,VWS V13.01,2013-01-18 04:28:00,
2013-01-17 23:30:00,29.3,17.9,29.32,NE,45,0.0,0.0,62,0.00,,---,0.21,VWS V13.01,2013-01-18 04:30:00,
2013-01-17 23:31:00,29.3,17.9,29.32,NE,45,0.0,0.0,62,0.00,,---,0.21,VWS V13.01,2013-01-18 04:31:00,
2013-01-17 23:33:00,29.1,17.4,29.32,NE,45,0.0,0.0,61,0.00,,---,0.21,VWS V13.01,2013-01-18 04:33:00,
2013-01-17 23:35:00,28.9,17.2,29.32,NE,45,0.0,0.0,61,0.00,,---,0.21,VWS V13.01,2013-01-18 04:35:00,
2013-01-17 23:36:00,28.9,17.2,29.32,NE,45,0.0,0.0,61,0.00,,---,0.21,VWS V13.01,2013-01-18 04:36:00,
2013-01-17 23:38:00,28.8,17.0,29.32,NE,45,0.0,0.0,61,0.00,,---,0.21,VWS V13.01,2013-01-18 04:38:00,
2013-01-17 23:40:00,28.8,16.6,29.32,NE,45,0.0,0.0,60,0.00,,---,0.21,VWS V13.01,2013-01-18 04:40:00,
2013-01-17 23:41:00,28.8,16.6,29.32,NE,45,0.0,0.0,60,0.00,,---,0.21,VWS V13.01,2013-01-18 04:41:00,
2013-01-17 23:43:00,28.6,16.5,29.32,NE,45,0.0,0.0,60,0.00,,---,0.21,VWS V13.01,2013-01-18 04:43:00,
2013-01-17 23:45:00,28.6,16.1,29.32,NE,45,0.0,0.0,59,0.00,,---,0.21,VWS V13.01,2013-01-18 04:45:00,
2013-01-17 23:46:00,28.6,16.1,29.32,NE,45,0.0,0.0,59,0.00,,---,0.21,VWS V13.01,2013-01-18 04:46:00,
2013-01-17 23:48:00,28.4,16.3,29.32,NE,45,0.0,0.0,60,0.00,,---,0.21,VWS V13.01,2013-01-18 04:48:00,
2013-01-17 23:50:00,28.4,16.3,29.32,NE,45,0.0,0.0,60,0.00,,---,0.21,VWS V13.01,2013-01-18 04:50:00,
2013-01-17 23:51:00,28.4,16.3,29.32,NE,45,0.0,0.0,60,0.00,,---,0.21,VWS V13.01,2013-01-18 04:51:00,
2013-01-17 23:54:00,28.2,15.8,29.32,NE,45,0.0,0.0,59,0.00,,---,0.21,VWS V13.01,2013-01-18 04:54:00,
2013-01-17 23:55:00,28.2,15.8,29.32,NE,45,0.0,0.0,59,0.00,,---,0.21,VWS V13.01,2013-01-18 04:55:00,
2013-01-17 23:56:00,28.2,15.8,29.32,NE,45,0.0,0.0,59,0.00,,---,0.21,VWS V13.01,2013-01-18 04:56:00,
2013-01-17 23:59:00,28.0,15.6,29.32,NE,45,0.0,0.0,59,0.00,,---,0.21,VWS V13.01,2013-01-18 04:59:00,